Time,TemperatureF,DewpointF,PressureIn,WindDirection,WindDirectionDegrees,WindSpeedMPH,WindSpeedGustMPH,Humidity,HourlyPrecipIn,Conditions,Clouds,dailyrainin,SoftwareType,DateUTC
2013-01-11 00:00:00,30.4,22.1,30.65,SW,225,0.0,0.0,71,0.00,CLR,,0.12,WeatherDisplay:10.37,2013-01-11 05:00:00,
2013-01-11 00:02:00,29.8,21.9,30.65,SSE,158,0.0,0.0,72,0.00,RA,,0.00,WeatherDisplay:10.37,2013-01-11 05:02:00,
2013-01-11 00:03:00,29.8,21.9,30.65,SSE,158,0.0,0.0,72,0.00,RA,,0.00,WeatherDisplay:10.37,2013-01-11 05:03:00,
2013-01-11 00:07:00,29.8,21.9,30.65,SSE,158,0.0,0.0,72,0.00,RA,,0.00,WeatherDisplay:10.37,2013-01-11 05:07:00,
2013-01-11 00:08:00,29.8,21.9,30.65,SSE,158,0.0,0.0,72,0.00,RA,,0.00,WeatherDisplay:10.37,2013-01-11 05:08:00,
2013-01-11 00:12:00,29.8,21.9,30.65,SSE,158,0.0,0.0,72,0.00,CLR,,0.00,WeatherDisplay:10.37,2013-01-11 05:12:00,
2013-01-11 00:13:00,29.8,21.9,30.65,SSE,158,0.0,0.0,72,0.00,CLR,,0.00,WeatherDisplay:10.37,2013-01-11 05:13:00,
2013-01-11 00:17:00,29.8,21.9,30.65,SSE,158,0.0,0.0,72,0.00,CLR,,0.00,WeatherDisplay:10.37,2013-01-11 05:17:00,
2013-01-11 00:18:00,29.8,21.9,30.65,SSE,158,0.0,0.0,72,0.00,CLR,,0.00,WeatherDisplay:10.37,2013-01-11 05:18:00,
2013-01-11 00:23:00,29.8,21.9,30.65,SSE,158,0.0,0.0,72,0.00,CLR,,0.00,WeatherDisplay:10.37,2013-01-11 05:23:00,
2013-01-11 00:24:00,29.8,21.9,30.65,SSE,158,0.0,0.0,72,0.00,CLR,,0.00,WeatherDisplay:10.37,2013-01-11 05:24:00,
2013-01-11 00:28:00,29.8,21.9,30.65,SSE,158,0.0,0.0,72,0.00,CLR,,0.00,WeatherDisplay:10.37,2013-01-11 05:28:00,
2013-01-11 00:29:00,29.8,21.9,30.65,SSE,158,0.0,0.0,72,0.00,CLR,,0.00,WeatherDisplay:10.37,2013-01-11 05:29:00,
2013-01-11 00:33:00,29.7,22.1,30.66,West,270,0.0,0.0,73,0.00,CLR,,0.00,WeatherDisplay:10.37,2013-01-11 05:33:00,
2013-01-11 00:34:00,29.7,22.1,30.66,West,270,0.0,0.0,73,0.00,CLR,,0.00,WeatherDisplay:10.37,2013-01-11 05:34:00,
2013-01-11 00:35:00,29.7,22.1,30.66,SW,216,0.0,0.0,73,0.00,CLR,,0.00,WeatherDisplay:10.37,2013-01-11 05:35:00,
2013-01-11 00:38:00,29.7,22.1,30.66,West,270,0.0,0.0,73,0.00,CLR,,0.00,WeatherDisplay:10.37,2013-01-11 05:38:00,
2013-01-11 00:39:00,29.7,22.1,30.66,West,270,0.0,0.0,73,0.00,CLR,,0.00,WeatherDisplay:10.37,2013-01-11 05:39:00,
2013-01-11 00:40:00,29.7,22.1,30.66,West,270,0.0,0.0,73,0.00,CLR,,0.00,WeatherDisplay:10.37,2013-01-11 05:40:00,
2013-01-11 00:44:00,29.7,22.1,30.66,West,270,0.0,0.0,73,0.00,CLR,,0.00,WeatherDisplay:10.37,2013-01-11 05:44:00,
2013-01-11 00:45:00,29.7,22.1,30.66,West,270,0.0,0.0,73,0.00,CLR,,0.00,WeatherDisplay:10.37,2013-01-11 05:45:00,
2013-01-11 00:49:00,29.7,22.1,30.66,West,270,0.0,0.0,73,0.00,CLR,,0.00,WeatherDisplay:10.37,2013-01-11 05:49:00,
2013-01-11 00:50:00,29.7,22.1,30.66,West,270,0.0,0.0,73,0.00,CLR,,0.00,WeatherDisplay:10.37,2013-01-11 05:50:00,
2013-01-11 00:54:00,29.7,22.1,30.66,West,270,0.0,0.0,73,0.00,CLR,,0.00,WeatherDisplay:10.37,2013-01-11 05:54:00,
2013-01-11 00:55:00,29.7,22.1,30.66,West,270,0.0,0.0,73,0.00,CLR,,0.00,WeatherDisplay:10.37,2013-01-11 05:55:00,
2013-01-11 00:59:00,29.7,22.1,30.66,West,270,0.0,0.0,73,0.00,CLR,,0.00,WeatherDisplay:10.37,2013-01-11 05:59:00,
2013-01-11 01:00:00,29.7,22.1,30.66,West,270,0.0,0.0,73,0.00,CLR,,0.00,WeatherDisplay:10.37,2013-01-11 06:00:00,
2013-01-11 01:04:00,29.3,22.0,30.65,NW,315,0.0,0.2,74,0.00,CLR,,0.00,WeatherDisplay:10.37,2013-01-11 06:04:00,
2013-01-11 01:05:00,29.3,22.0,30.65,NW,315,0.0,0.2,74,0.00,CLR,,0.00,WeatherDisplay:10.37,2013-01-11 06:05:00,
2013-01-11 01:10:00,29.3,22.0,30.65,NW,315,0.0,0.2,74,0.00,CLR,,0.00,WeatherDisplay:10.37,2013-01-11 06:10:00,
2013-01-11 01:15:00,29.3,22.0,30.65,NW,315,0.0,0.2,74,0.00,CLR,,0.00,WeatherDisplay:10.37,2013-01-11 06:15:00,
2013-01-11 01:20:00,29.3,22.0,30.65,NW,315,0.0,0.2,74,0.00,CLR,,0.00,WeatherDisplay:10.37,2013-01-11 06:20:00,
2013-01-11 01:21:00,29.3,22.0,30.65,NW,315,0.0,0.2,74,0.00,CLR,,0.00,WeatherDisplay:10.37,2013-01-11 06:21:00,
2013-01-11 01:25:00,29.3,22.0,30.65,NW,315,0.0,0.2,74,0.00,CLR,,0.00,WeatherDisplay:10.37,2013-01-11 06:25:00,
2013-01-11 01:26:00,29.3,22.0,30.65,NW,315,0.0,0.2,74,0.00,CLR,,0.00,WeatherDisplay:10.37,2013-01-11 06:26:00,
2013-01-11 01:30:00,29.3,22.0,30.65,NW,315,0.0,0.2,74,0.00,CLR,,0.00,WeatherDisplay:10.37,2013-01-11 06:30:00,
2013-01-11 01:31:00,28.9,21.7,30.65,SE,135,0.0,0.0,74,0.00,CLR,,0.00,WeatherDisplay:10.37,2013-01-11 06:31:00,
2013-01-11 01:35:00,28.9,21.7,30.65,SE,135,0.0,0.0,74,0.00,CLR,,0.00,WeatherDisplay:10.37,2013-01-11 06:35:00,
2013-01-11 01:36:00,28.9,21.7,30.65,SE,135,0.0,0.0,74,0.00,CLR,,0.00,WeatherDisplay:10.37,2013-01-11 06:36:00,
2013-01-11 01:37:00,28.9,21.7,30.65,SE,135,0.0,0.0,74,0.00,CLR,,0.00,WeatherDisplay:10.37,2013-01-11 06:37:00,
2013-01-11 01:41:00,28.9,21.7,30.65,SE,135,0.0,0.0,74,0.00,CLR,,0.00,WeatherDisplay:10.37,2013-01-11 06:41:00,
2013-01-11 01:42:00,28.9,21.7,30.65,SE,135,0.0,0.0,74,0.00,CLR,,0.00,WeatherDisplay:10.37,2013-01-11 06:42:00,
2013-01-11 01:46:00,28.9,21.7,30.65,SE,135,0.0,0.0,74,0.00,CLR,,0.00,WeatherDisplay:10.37,2013-01-11 06:46:00,
2013-01-11 01:47:00,28.9,21.7,30.65,SE,135,0.0,0.0,74,0.00,CLR,,0.00,WeatherDisplay:10.37,2013-01-11 06:47:00,
2013-01-11 01:51:00,28.9,21.7,30.65,SE,135,0.0,0.0,74,0.00,CLR,,0.00,WeatherDisplay:10.37,2013-01-11 06:51:00,
2013-01-11 01:52:00,28.9,21.7,30.65,SE,135,0.0,0.0,74,0.00,CLR,,0.00,WeatherDisplay:10.37,2013-01-11 06:52:00,
2013-01-11 01:56:00,28.9,21.7,30.65,SE,135,0.0,0.0,74,0.00,CLR,,0.00,WeatherDisplay:10.37,2013-01-11 06:56:00,
2013-01-11 01:57:00,28.9,21.7,30.65,SE,135,0.0,0.0,74,0.00,CLR,,0.00,WeatherDisplay:10.37,2013-01-11 06:57:00,
2013-01-11 02:01:00,28.8,21.8,30.64,West,270,0.0,0.0,75,0.00,CLR,,0.00,WeatherDisplay:10.37,2013-01-11 07:01:00,
2013-01-11 02:02:00,28.8,21.8,30.64,West,270,0.0,0.0,75,0.00,CLR,,0.00,WeatherDisplay:10.37,2013-01-11 07:02:00,
2013-01-11 02:06:00,28.8,21.8,30.64,West,270,0.0,0.0,75,0.00,CLR,,0.00,WeatherDisplay:10.37,2013-01-11 07:06:00,
2013-01-11 02:07:00,28.8,21.8,30.64,West,270,0.0,0.0,75,0.00,CLR,,0.00,WeatherDisplay:10.37,2013-01-11 07:07:00,
2013-01-11 02:12:00,28.8,21.8,30.64,West,270,0.0,0.0,75,0.00,CLR,,0.00,WeatherDisplay:10.37,2013-01-11 07:12:00,
2013-01-11 02:13:00,28.8,21.8,30.64,West,270,0.0,0.0,75,0.00,CLR,,0.00,WeatherDisplay:10.37,2013-01-11 07:13:00,
2013-01-11 02:17:00,28.8,21.8,30.64,West,270,0.0,0.0,75,0.00,CLR,,0.00,WeatherDisplay:10.37,2013-01-11 07:17:00,
2013-01-11 02:18:00,28.8,21.8,30.64,West,270,0.0,0.0,75,0.00,CLR,,0.00,WeatherDisplay:10.37,2013-01-11 07:18:00,
2013-01-11 02:22:00,28.8,21.8,30.64,West,270,0.0,0.0,75,0.00,CLR,,0.00,WeatherDisplay:10.37,2013-01-11 07:22:00,
2013-01-11 02:23:00,28.8,21.8,30.64,West,270,0.0,0.0,75,0.00,CLR,,0.00,WeatherDisplay:10.37,2013-01-11 07:23:00,
2013-01-11 02:27:00,28.8,21.8,30.64,West,270,0.0,0.0,75,0.00,CLR,,0.00,WeatherDisplay:10.37,2013-01-11 07:27:00,
2013-01-11 02:28:00,28.8,21.8,30.64,West,270,0.0,0.0,75,0.00,CLR,,0.00,WeatherDisplay:10.37,2013-01-11 07:28:00,
2013-01-11 02:32:00,28.0,21.1,30.63,SSE,158,0.0,0.2,75,0.00,CLR,,0.00,WeatherDisplay:10.37,2013-01-11 07:32:00,
2013-01-11 02:33:00,28.0,21.1,30.63,SSE,158,0.0,0.2,75,0.00,CLR,,0.00,WeatherDisplay:10.37,2013-01-11 07:33:00,
2013-01-11 02:34:00,28.0,21.1,30.63,SSE,158,0.0,0.2,75,0.00,CLR,,0.00,WeatherDisplay:10.37,2013-01-11 07:34:00,
2013-01-11 02:37:00,28.0,21.1,30.63,SSE,158,0.0,0.2,75,0.00,CLR,,0.00,WeatherDisplay:10.37,2013-01-11 07:37:00,
2013-01-11 02:39:00,28.0,21.1,30.63,SSE,158,0.0,0.2,75,0.00,CLR,,0.00,WeatherDisplay:10.37,2013-01-11 07:39:00,
2013-01-11 02:42:00,28.0,21.1,30.63,SSE,158,0.0,0.2,75,0.00,CLR,,0.00,WeatherDisplay:10.37,2013-01-11 07:42:00,
2013-01-11 02:44:00,28.0,21.1,30.63,SSE,158,0.2,0.2,75,0.00,CLR,,0.00,WeatherDisplay:10.37,2013-01-11 07:44:00,
2013-01-11 02:45:00,28.0,21.1,30.63,SSE,158,0.0,0.2,75,0.00,CLR,,0.00,WeatherDisplay:10.37,2013-01-11 07:45:00,
2013-01-11 02:47:00,28.0,21.1,30.63,SSE,158,0.2,0.2,75,0.00,CLR,,0.00,WeatherDisplay:10.37,2013-01-11 07:47:00,
2013-01-11 02:48:00,28.0,21.1,30.63,SSE,158,0.0,0.2,75,0.00,CLR,,0.00,WeatherDisplay:10.37,2013-01-11 07:48:00,
2013-01-11 02:49:00,28.0,21.1,30.63,SSE,158,0.0,0.2,75,0.00,CLR,,0.00,WeatherDisplay:10.37,2013-01-11 07:49:00,
2013-01-11 02:50:00,28.0,21.1,30.63,SSE,158,0.0,0.2,75,0.00,CLR,,0.00,WeatherDisplay:10.37,2013-01-11 07:50:00,
2013-01-11 02:52:00,28.0,21.1,30.63,SSE,158,0.0,0.2,75,0.00,CLR,,0.00,WeatherDisplay:10.37,2013-01-11 07:52:00,
2013-01-11 02:53:00,28.0,21.1,30.63,SSE,158,0.0,0.2,75,0.00,CLR,,0.00,WeatherDisplay:10.37,2013-01-11 07:53:00,
2013-01-11 02:55:00,28.0,21.1,30.63,SSE,158,0.0,0.2,75,0.00,CLR,,0.00,WeatherDisplay:10.37,2013-01-11 07:55:00,
2013-01-11 02:57:00,28.0,21.1,30.63,SSE,158,0.0,0.2,75,0.00,CLR,,0.00,WeatherDisplay:10.37,2013-01-11 07:57:00,
2013-01-11 02:58:00,28.0,21.1,30.63,SSE,158,0.0,0.2,75,0.00,CLR,,0.00,WeatherDisplay:10.37,2013-01-11 07:58:00,
2013-01-11 03:00:00,28.0,21.1,30.63,SSE,158,0.0,0.2,75,0.00,CLR,,0.00,WeatherDisplay:10.37,2013-01-11 08:00:00,
2013-01-11 03:03:00,28.0,21.4,30.62,West,270,0.0,0.0,76,0.00,CLR,,0.00,WeatherDisplay:10.37,2013-01-11 08:03:00,
2013-01-11 03:05:00,28.0,21.4,30.62,West,270,0.0,0.0,76,0.00,CLR,,0.00,WeatherDisplay:10.37,2013-01-11 08:05:00,
2013-01-11 03:08:00,28.0,21.4,30.62,West,270,0.0,0.0,76,0.00,CLR,,0.00,WeatherDisplay:10.37,2013-01-11 08:08:00,
2013-01-11 03:09:00,28.0,21.4,30.62,West,270,0.0,0.0,76,0.00,CLR,,0.00,WeatherDisplay:10.37,2013-01-11 08:09:00,
2013-01-11 03:10:00,28.0,21.4,30.62,West,270,0.0,0.0,76,0.00,CLR,,0.00,WeatherDisplay:10.37,2013-01-11 08:10:00,
2013-01-11 03:11:00,28.0,21.4,30.62,West,270,0.0,0.0,76,0.00,CLR,,0.00,WeatherDisplay:10.37,2013-01-11 08:11:00,
2013-01-11 03:13:00,28.0,21.4,30.62,West,270,0.0,0.0,76,0.00,CLR,,0.00,WeatherDisplay:10.37,2013-01-11 08:13:00,
2013-01-11 03:14:00,28.0,21.4,30.62,West,270,0.0,0.0,76,0.00,CLR,,0.00,WeatherDisplay:10.37,2013-01-11 08:14:00,
2013-01-11 03:15:00,28.0,21.4,30.62,West,270,0.0,0.0,76,0.00,CLR,,0.00,WeatherDisplay:10.37,2013-01-11 08:15:00,
2013-01-11 03:16:00,28.0,21.4,30.62,West,270,0.0,0.0,76,0.00,CLR,,0.00,WeatherDisplay:10.37,2013-01-11 08:16:00,
2013-01-11 03:18:00,28.0,21.4,30.62,West,270,0.0,0.0,76,0.00,CLR,,0.00,WeatherDisplay:10.37,2013-01-11 08:18:00,
2013-01-11 03:19:00,28.0,21.4,30.62,West,270,0.0,0.0,76,0.00,CLR,,0.00,WeatherDisplay:10.37,2013-01-11 08:19:00,
2013-01-11 03:21:00,28.0,21.4,30.62,West,270,0.0,0.0,76,0.00,CLR,,0.00,WeatherDisplay:10.37,2013-01-11 08:21:00,
2013-01-11 03:23:00,28.0,21.4,30.62,West,270,0.0,0.0,76,0.00,CLR,,0.00,WeatherDisplay:10.37,2013-01-11 08:23:00,
2013-01-11 03:24:00,28.0,21.4,30.62,West,270,0.0,0.0,76,0.00,CLR,,0.00,WeatherDisplay:10.37,2013-01-11 08:24:00,
2013-01-11 03:26:00,28.0,21.4,30.62,West,270,0.0,0.0,76,0.00,CLR,,0.00,WeatherDisplay:10.37,2013-01-11 08:26:00,
2013-01-11 03:27:00,28.0,21.4,30.62,West,270,0.0,0.0,76,0.00,CLR,,0.00,WeatherDisplay:10.37,2013-01-11 08:27:00,
2013-01-11 03:28:00,28.0,21.4,30.62,West,270,0.0,0.0,76,0.00,CLR,,0.00,WeatherDisplay:10.37,2013-01-11 08:28:00,
2013-01-11 03:29:00,28.0,21.4,30.62,West,270,0.0,0.0,76,0.00,CLR,,0.00,WeatherDisplay:10.37,2013-01-11 08:29:00,
2013-01-11 03:31:00,27.7,21.1,30.61,SE,135,0.0,0.0,76,0.00,CLR,,0.00,WeatherDisplay:10.37,2013-01-11 08:31:00,
2013-01-11 03:32:00,27.7,21.1,30.61,SE,135,0.0,0.0,76,0.00,CLR,,0.00,WeatherDisplay:10.37,2013-01-11 08:32:00,
2013-01-11 03:34:00,27.7,21.1,30.61,SE,135,0.0,0.0,76,0.00,CLR,,0.00,WeatherDisplay:10.37,2013-01-11 08:34:00,
2013-01-11 03:36:00,27.7,21.1,30.61,SE,135,0.0,0.0,76,0.00,CLR,,0.00,WeatherDisplay:10.37,2013-01-11 08:36:00,
2013-01-11 03:37:00,27.7,21.1,30.61,SE,135,0.0,0.0,76,0.00,CLR,,0.00,WeatherDisplay:10.37,2013-01-11 08:37:00,
2013-01-11 03:39:00,27.7,21.1,30.61,SE,135,0.0,0.0,76,0.00,CLR,,0.00,WeatherDisplay:10.37,2013-01-11 08:39:00,
2013-01-11 03:41:00,27.7,21.1,30.61,SE,135,0.0,0.0,76,0.00,CLR,,0.00,WeatherDisplay:10.37,2013-01-11 08:41:00,
2013-01-11 03:42:00,27.7,21.1,30.61,SE,135,0.0,0.0,76,0.00,CLR,,0.00,WeatherDisplay:10.37,2013-01-11 08:42:00,
2013-01-11 03:44:00,27.7,21.1,30.61,SE,135,0.0,0.0,76,0.00,CLR,,0.00,WeatherDisplay:10.37,2013-01-11 08:44:00,
2013-01-11 03:45:00,27.7,21.1,30.61,SE,135,0.0,0.0,76,0.00,CLR,,0.00,WeatherDisplay:10.37,2013-01-11 08:45:00,
2013-01-11 03:47:00,27.7,21.1,30.61,SE,135,0.0,0.0,76,0.00,CLR,,0.00,WeatherDisplay:10.37,2013-01-11 08:47:00,
2013-01-11 03:50:00,27.7,21.1,30.61,SE,135,0.0,0.0,76,0.00,CLR,,0.00,WeatherDisplay:10.37,2013-01-11 08:50:00,
2013-01-11 03:52:00,27.7,21.1,30.61,SE,135,0.0,0.0,76,0.00,CLR,,0.00,WeatherDisplay:10.37,2013-01-11 08:52:00,
2013-01-11 03:55:00,27.7,21.1,30.61,SE,135,0.0,0.0,76,0.00,CLR,,0.00,WeatherDisplay:10.37,2013-01-11 08:55:00,
2013-01-11 03:58:00,27.7,21.1,30.61,SE,135,0.0,0.0,76,0.00,CLR,,0.00,WeatherDisplay:10.37,2013-01-11 08:58:00,
2013-01-11 04:00:00,27.7,21.1,30.61,SE,135,0.0,0.0,76,0.00,CLR,,0.00,WeatherDisplay:10.37,2013-01-11 09:00:00,
2013-01-11 04:04:00,27.3,21.1,30.61,SSW,202,0.0,0.0,77,0.00,CLR,,0.00,WeatherDisplay:10.37,2013-01-11 09:04:00,
2013-01-11 04:06:00,27.3,21.1,30.61,SSW,202,0.0,0.0,77,0.00,CLR,,0.00,WeatherDisplay:10.37,2013-01-11 09:06:00,
2013-01-11 04:09:00,27.3,21.1,30.61,SSW,202,0.0,0.0,77,0.00,CLR,,0.00,WeatherDisplay:10.37,2013-01-11 09:09:00,
2013-01-11 04:11:00,27.3,21.1,30.61,SSW,202,0.0,0.0,77,0.00,CLR,,0.00,WeatherDisplay:10.37,2013-01-11 09:11:00,
2013-01-11 04:12:00,27.3,21.1,30.61,SSW,202,0.0,0.0,77,0.00,CLR,,0.00,WeatherDisplay:10.37,2013-01-11 09:12:00,
2013-01-11 04:14:00,27.3,21.1,30.61,SSW,202,0.0,0.0,77,0.00,CLR,,0.00,WeatherDisplay:10.37,2013-01-11 09:14:00,
2013-01-11 04:15:00,27.3,21.1,30.61,SSW,202,0.0,0.0,77,0.00,CLR,,0.00,WeatherDisplay:10.37,2013-01-11 09:15:00,
2013-01-11 04:16:00,27.3,21.1,30.61,SSW,202,0.0,0.0,77,0.00,CLR,,0.00,WeatherDisplay:10.37,2013-01-11 09:16:00,
2013-01-11 04:17:00,27.3,21.1,30.61,SSW,202,0.0,0.0,77,0.00,CLR,,0.00,WeatherDisplay:10.37,2013-01-11 09:17:00,
2013-01-11 04:19:00,27.3,21.1,30.61,SSW,202,0.0,0.0,77,0.00,CLR,,0.00,WeatherDisplay:10.37,2013-01-11 09:19:00,
2013-01-11 04:20:00,27.3,21.1,30.61,SSW,202,0.0,0.0,77,0.00,CLR,,0.00,WeatherDisplay:10.37,2013-01-11 09:20:00,
2013-01-11 04:22:00,27.3,21.1,30.61,SSW,202,0.0,0.0,77,0.00,CLR,,0.00,WeatherDisplay:10.37,2013-01-11 09:22:00,
2013-01-11 04:24:00,27.3,21.1,30.61,SSW,202,0.0,0.0,77,0.00,CLR,,0.00,WeatherDisplay:10.37,2013-01-11 09:24:00,
2013-01-11 04:25:00,27.3,21.1,30.61,SSW,202,0.0,0.0,77,0.00,CLR,,0.00,WeatherDisplay:10.37,2013-01-11 09:25:00,
2013-01-11 04:27:00,27.3,21.1,30.61,SSW,202,0.0,0.0,77,0.00,CLR,,0.00,WeatherDisplay:10.37,2013-01-11 09:27:00,
2013-01-11 04:30:00,27.3,21.1,30.61,SSW,202,0.0,0.0,77,0.00,CLR,,0.00,WeatherDisplay:10.37,2013-01-11 09:30:00,
2013-01-11 04:32:00,26.8,20.5,30.59,SE,135,0.0,0.2,77,0.00,CLR,,0.00,WeatherDisplay:10.37,2013-01-11 09:32:00,
2013-01-11 04:35:00,26.8,20.5,30.59,SE,135,0.0,0.2,77,0.00,CLR,,0.00,WeatherDisplay:10.37,2013-01-11 09:35:00,
2013-01-11 04:37:00,26.8,20.5,30.59,SE,135,0.0,0.2,77,0.00,CLR,,0.00,WeatherDisplay:10.37,2013-01-11 09:37:00,
2013-01-11 04:38:00,26.8,20.5,30.59,SE,135,0.0,0.2,77,0.00,CLR,,0.00,WeatherDisplay:10.37,2013-01-11 09:38:00,
2013-01-11 04:40:00,26.8,20.5,30.59,SE,135,0.0,0.2,77,0.00,CLR,,0.00,WeatherDisplay:10.37,2013-01-11 09:40:00,
2013-01-11 04:41:00,26.8,20.5,30.59,SE,135,0.0,0.2,77,0.00,CLR,,0.00,WeatherDisplay:10.37,2013-01-11 09:41:00,
2013-01-11 04:43:00,26.8,20.5,30.59,SE,135,0.0,0.2,77,0.00,CLR,,0.00,WeatherDisplay:10.37,2013-01-11 09:43:00,
2013-01-11 04:45:00,26.8,20.5,30.59,SE,135,0.0,0.2,77,0.00,CLR,,0.00,WeatherDisplay:10.37,2013-01-11 09:45:00,
2013-01-11 04:46:00,26.8,20.5,30.59,SE,135,0.0,0.2,77,0.00,CLR,,0.00,WeatherDisplay:10.37,2013-01-11 09:46:00,
2013-01-11 04:48:00,26.8,20.5,30.59,SE,135,0.0,0.2,77,0.00,CLR,,0.00,WeatherDisplay:10.37,2013-01-11 09:48:00,
2013-01-11 04:51:00,26.8,20.5,30.59,SE,135,0.0,0.2,77,0.00,CLR,,0.00,WeatherDisplay:10.37,2013-01-11 09:51:00,
2013-01-11 04:53:00,26.8,20.5,30.59,SE,135,0.0,0.2,77,0.00,CLR,,0.00,WeatherDisplay:10.37,2013-01-11 09:53:00,
2013-01-11 04:54:00,26.8,20.5,30.59,SE,135,0.0,0.2,77,0.00,CLR,,0.00,WeatherDisplay:10.37,2013-01-11 09:54:00,
2013-01-11 04:56:00,26.8,20.5,30.59,SE,135,0.0,0.2,77,0.00,CLR,,0.00,WeatherDisplay:10.37,2013-01-11 09:56:00,
2013-01-11 04:58:00,26.8,20.5,30.59,SE,135,0.0,0.2,77,0.00,CLR,,0.00,WeatherDisplay:10.37,2013-01-11 09:58:00,
2013-01-11 04:59:00,26.8,20.5,30.59,SE,135,0.0,0.2,77,0.00,CLR,,0.00,WeatherDisplay:10.37,2013-01-11 09:59:00,
2013-01-11 05:01:00,26.6,20.7,30.58,North,0,0.0,0.0,78,0.00,CLR,,0.00,WeatherDisplay:10.37,2013-01-11 10:01:00,
2013-01-11 05:03:00,26.6,20.7,30.58,North,0,0.0,0.0,78,0.00,CLR,,0.00,WeatherDisplay:10.37,2013-01-11 10:03:00,
2013-01-11 05:04:00,26.6,20.7,30.58,North,0,0.0,0.0,78,0.00,CLR,,0.00,WeatherDisplay:10.37,2013-01-11 10:04:00,
2013-01-11 05:06:00,26.6,20.7,30.58,North,0,0.0,0.0,78,0.00,CLR,,0.00,WeatherDisplay:10.37,2013-01-11 10:06:00,
2013-01-11 05:07:00,26.6,20.7,30.58,North,0,0.0,0.0,78,0.00,CLR,,0.00,WeatherDisplay:10.37,2013-01-11 10:07:00,
2013-01-11 05:08:00,26.6,20.7,30.58,North,0,0.0,0.0,78,0.00,CLR,,0.00,WeatherDisplay:10.37,2013-01-11 10:08:00,
2013-01-11 05:09:00,26.6,20.7,30.58,North,0,0.0,0.0,78,0.00,CLR,,0.00,WeatherDisplay:10.37,2013-01-11 10:09:00,
2013-01-11 05:11:00,26.6,20.7,30.58,North,0,0.0,0.0,78,0.00,CLR,,0.00,WeatherDisplay:10.37,2013-01-11 10:11:00,
2013-01-11 05:12:00,26.6,20.7,30.58,North,0,0.0,0.0,78,0.00,CLR,,0.00,WeatherDisplay:10.37,2013-01-11 10:12:00,
2013-01-11 05:14:00,26.6,20.7,30.58,North,0,0.0,0.0,78,0.00,CLR,,0.00,WeatherDisplay:10.37,2013-01-11 10:14:00,
2013-01-11 05:17:00,26.6,20.7,30.58,North,0,0.0,0.0,78,0.00,CLR,,0.00,WeatherDisplay:10.37,2013-01-11 10:17:00,
2013-01-11 05:19:00,26.6,20.7,30.58,North,0,0.0,0.0,78,0.00,CLR,,0.00,WeatherDisplay:10.37,2013-01-11 10:19:00,
2013-01-11 05:20:00,26.6,20.7,30.58,North,0,0.0,0.0,78,0.00,CLR,,0.00,WeatherDisplay:10.37,2013-01-11 10:20:00,
2013-01-11 05:23:00,26.6,20.7,30.58,North,0,0.0,0.0,78,0.00,CLR,,0.00,WeatherDisplay:10.37,2013-01-11 10:23:00,
2013-01-11 05:24:00,26.6,20.7,30.58,North,0,0.0,0.0,78,0.00,CLR,,0.00,WeatherDisplay:10.37,2013-01-11 10:24:00,
2013-01-11 05:25:00,26.6,20.7,30.58,North,0,0.0,0.0,78,0.00,CLR,,0.00,WeatherDisplay:10.37,2013-01-11 10:25:00,
2013-01-11 05:28:00,26.6,20.7,30.58,North,0,0.0,0.0,78,0.00,CLR,,0.00,WeatherDisplay:10.37,2013-01-11 10:28:00,
2013-01-11 05:30:00,26.6,20.7,30.58,North,0,0.0,0.0,78,0.00,CLR,,0.00,WeatherDisplay:10.37,2013-01-11 10:30:00,
2013-01-11 05:33:00,27.0,21.3,30.59,East,90,0.0,0.0,79,0.00,CLR,,0.00,WeatherDisplay:10.37,2013-01-11 10:33:00,
2013-01-11 05:34:00,27.0,21.3,30.59,East,90,0.0,0.0,79,0.00,CLR,,0.00,WeatherDisplay:10.37,2013-01-11 10:34:00,
2013-01-11 05:35:00,27.0,21.3,30.59,East,90,0.0,0.0,79,0.00,CLR,,0.00,WeatherDisplay:10.37,2013-01-11 10:35:00,
2013-01-11 05:38:00,27.0,21.3,30.59,East,90,0.0,0.0,79,0.00,CLR,,0.00,WeatherDisplay:10.37,2013-01-11 10:38:00,
2013-01-11 05:39:00,27.0,21.3,30.59,East,90,0.0,0.0,79,0.00,CLR,,0.00,WeatherDisplay:10.37,2013-01-11 10:39:00,
2013-01-11 05:40:00,27.0,21.3,30.59,East,90,0.0,0.0,79,0.00,CLR,,0.00,WeatherDisplay:10.37,2013-01-11 10:40:00,
2013-01-11 05:44:00,27.0,21.3,30.59,East,90,0.0,0.0,79,0.00,CLR,,0.00,WeatherDisplay:10.37,2013-01-11 10:44:00,
2013-01-11 05:45:00,27.0,21.3,30.59,East,90,0.0,0.0,79,0.00,CLR,,0.00,WeatherDisplay:10.37,2013-01-11 10:45:00,
2013-01-11 05:46:00,27.0,21.3,30.59,East,90,0.0,0.0,79,0.00,CLR,,0.00,WeatherDisplay:10.37,2013-01-11 10:46:00,
2013-01-11 05:49:00,27.0,21.3,30.59,East,90,0.0,0.0,79,0.00,CLR,,0.00,WeatherDisplay:10.37,2013-01-11 10:49:00,
2013-01-11 05:50:00,27.0,21.3,30.59,East,90,0.0,0.0,79,0.00,CLR,,0.00,WeatherDisplay:10.37,2013-01-11 10:50:00,
2013-01-11 05:51:00,27.0,21.3,30.59,East,90,0.0,0.0,79,0.00,CLR,,0.00,WeatherDisplay:10.37,2013-01-11 10:51:00,
2013-01-11 05:54:00,27.0,21.3,30.59,East,90,0.0,0.0,79,0.00,CLR,,0.00,WeatherDisplay:10.37,2013-01-11 10:54:00,
2013-01-11 05:55:00,27.0,21.3,30.59,East,90,0.0,0.0,79,0.00,CLR,,0.00,WeatherDisplay:10.37,2013-01-11 10:55:00,
2013-01-11 05:56:00,27.0,21.3,30.59,East,90,0.0,0.0,79,0.00,CLR,,0.00,WeatherDisplay:10.37,2013-01-11 10:56:00,
2013-01-11 05:59:00,27.0,21.3,30.59,East,90,0.0,0.0,79,0.00,CLR,,0.00,WeatherDisplay:10.37,2013-01-11 10:59:00,
2013-01-11 06:02:00,27.0,21.3,30.60,West,270,0.0,0.0,79,0.00,CLR,,0.00,WeatherDisplay:10.37,2013-01-11 11:02:00,
2013-01-11 06:04:00,27.0,21.3,30.60,West,270,0.0,0.0,79,0.00,CLR,,0.00,WeatherDisplay:10.37,2013-01-11 11:04:00,
2013-01-11 06:05:00,27.0,21.3,30.60,West,270,0.0,0.0,79,0.00,CLR,,0.00,WeatherDisplay:10.37,2013-01-11 11:05:00,
2013-01-11 06:07:00,27.0,21.3,30.60,West,270,0.0,0.0,79,0.00,CLR,,0.00,WeatherDisplay:10.37,2013-01-11 11:07:00,
2013-01-11 06:09:00,27.0,21.3,30.60,West,270,0.0,0.0,79,0.00,CLR,,0.00,WeatherDisplay:10.37,2013-01-11 11:09:00,
2013-01-11 06:10:00,27.0,21.3,30.60,West,270,0.0,0.0,79,0.00,CLR,,0.00,WeatherDisplay:10.37,2013-01-11 11:10:00,
2013-01-11 06:12:00,27.0,21.3,30.60,West,270,0.0,0.0,79,0.00,CLR,,0.00,WeatherDisplay:10.37,2013-01-11 11:12:00,
2013-01-11 06:15:00,27.0,21.3,30.60,West,270,0.0,0.0,79,0.00,CLR,,0.00,WeatherDisplay:10.37,2013-01-11 11:15:00,
2013-01-11 06:17:00,27.0,21.3,30.60,West,270,0.0,0.0,79,0.00,CLR,,0.00,WeatherDisplay:10.37,2013-01-11 11:17:00,
2013-01-11 06:20:00,27.0,21.3,30.60,West,270,0.0,0.0,79,0.00,CLR,,0.00,WeatherDisplay:10.37,2013-01-11 11:20:00,
2013-01-11 06:22:00,27.0,21.3,30.60,West,270,0.0,0.0,79,0.00,CLR,,0.00,WeatherDisplay:10.37,2013-01-11 11:22:00,
2013-01-11 06:25:00,27.0,21.3,30.60,West,270,0.0,0.0,79,0.00,CLR,,0.00,WeatherDisplay:10.37,2013-01-11 11:25:00,
2013-01-11 06:26:00,27.0,21.3,30.60,West,270,0.0,0.0,79,0.00,CLR,,0.00,WeatherDisplay:10.37,2013-01-11 11:26:00,
2013-01-11 06:27:00,27.0,21.3,30.60,West,270,0.0,0.0,79,0.00,CLR,,0.00,WeatherDisplay:10.37,2013-01-11 11:27:00,
2013-01-11 06:31:00,27.1,21.5,30.58,WSW,248,0.0,0.0,79,0.00,CLR,,0.00,WeatherDisplay:10.37,2013-01-11 11:31:00,
2013-01-11 06:32:00,27.1,21.5,30.58,WSW,248,0.0,0.0,79,0.00,CLR,,0.00,WeatherDisplay:10.37,2013-01-11 11:32:00,
2013-01-11 06:33:00,27.1,21.5,30.58,WSW,248,0.0,0.0,79,0.00,CLR,,0.00,WeatherDisplay:10.37,2013-01-11 11:33:00,
2013-01-11 06:36:00,27.1,21.5,30.58,WSW,248,0.0,0.0,79,0.00,CLR,,0.00,WeatherDisplay:10.37,2013-01-11 11:36:00,
2013-01-11 06:37:00,27.1,21.5,30.58,WSW,248,0.0,0.0,79,0.00,CLR,,0.00,WeatherDisplay:10.37,2013-01-11 11:37:00,
2013-01-11 06:38:00,27.1,21.5,30.58,WSW,248,0.0,0.0,79,0.00,CLR,,0.00,WeatherDisplay:10.37,2013-01-11 11:38:00,
2013-01-11 06:41:00,27.1,21.5,30.58,WSW,248,0.0,0.0,79,0.00,CLR,,0.00,WeatherDisplay:10.37,2013-01-11 11:41:00,
2013-01-11 06:42:00,27.1,21.5,30.58,WSW,248,0.0,0.0,79,0.00,CLR,,0.00,WeatherDisplay:10.37,2013-01-11 11:42:00,
2013-01-11 06:43:00,27.1,21.5,30.58,WSW,248,0.0,0.0,79,0.00,CLR,,0.00,WeatherDisplay:10.37,2013-01-11 11:43:00,
2013-01-11 06:44:00,27.1,21.5,30.58,WSW,248,0.0,0.0,79,0.00,CLR,,0.00,WeatherDisplay:10.37,2013-01-11 11:44:00,
2013-01-11 06:46:00,27.1,21.5,30.58,WSW,248,0.0,0.0,79,0.00,CLR,,0.00,WeatherDisplay:10.37,2013-01-11 11:46:00,
2013-01-11 06:47:00,27.1,21.5,30.58,WSW,248,0.0,0.0,79,0.00,CLR,,0.00,WeatherDisplay:10.37,2013-01-11 11:47:00,
2013-01-11 06:48:00,27.1,21.5,30.58,WSW,248,0.0,0.0,79,0.00,CLR,,0.00,WeatherDisplay:10.37,2013-01-11 11:48:00,
2013-01-11 06:49:00,27.1,21.5,30.58,WSW,248,0.0,0.0,79,0.00,CLR,,0.00,WeatherDisplay:10.37,2013-01-11 11:49:00,
2013-01-11 06:51:00,27.1,21.5,30.58,WSW,248,0.0,0.0,79,0.00,CLR,,0.00,WeatherDisplay:10.37,2013-01-11 11:51:00,
2013-01-11 06:52:00,27.1,21.5,30.58,WSW,248,0.0,0.0,79,0.00,CLR,,0.00,WeatherDisplay:10.37,2013-01-11 11:52:00,
2013-01-11 06:54:00,27.1,21.5,30.58,WSW,248,0.0,0.0,79,0.00,CLR,,0.00,WeatherDisplay:10.37,2013-01-11 11:54:00,
2013-01-11 06:57:00,27.1,21.5,30.58,WSW,248,0.0,0.0,79,0.00,CLR,,0.00,WeatherDisplay:10.37,2013-01-11 11:57:00,
2013-01-11 06:59:00,27.1,21.5,30.58,WSW,248,0.0,0.0,79,0.00,CLR,,0.00,WeatherDisplay:10.37,2013-01-11 11:59:00,
2013-01-11 07:02:00,27.1,21.5,30.59,ESE,112,0.0,0.0,79,0.00,CLR,,0.00,WeatherDisplay:10.37,2013-01-11 12:02:00,
2013-01-11 07:04:00,27.1,21.5,30.59,ESE,112,0.0,0.0,79,0.00,CLR,,0.00,WeatherDisplay:10.37,2013-01-11 12:04:00,
2013-01-11 07:07:00,27.1,21.5,30.59,ESE,112,0.0,0.0,79,0.00,CLR,,0.00,WeatherDisplay:10.37,2013-01-11 12:07:00,
2013-01-11 07:09:00,27.1,21.5,30.59,ESE,112,0.0,0.0,79,0.00,CLR,,0.00,WeatherDisplay:10.37,2013-01-11 12:09:00,
2013-01-11 07:12:00,27.1,21.5,30.59,ESE,112,0.0,0.0,79,0.00,CLR,,0.00,WeatherDisplay:10.37,2013-01-11 12:12:00,
2013-01-11 07:14:00,27.1,21.5,30.59,ESE,112,0.0,0.0,79,0.00,CLR,,0.00,WeatherDisplay:10.37,2013-01-11 12:14:00,
2013-01-11 07:17:00,27.1,21.5,30.59,ESE,112,0.0,0.0,79,0.00,CLR,,0.00,WeatherDisplay:10.37,2013-01-11 12:17:00,
2013-01-11 07:18:00,27.1,21.5,30.59,ESE,112,0.0,0.0,79,0.00,CLR,,0.00,WeatherDisplay:10.37,2013-01-11 12:18:00,
2013-01-11 07:19:00,27.1,21.5,30.59,ESE,112,0.0,0.0,79,0.00,CLR,,0.00,WeatherDisplay:10.37,2013-01-11 12:19:00,
2013-01-11 07:22:00,27.1,21.5,30.59,ESE,112,0.0,0.0,79,0.00,CLR,,0.00,WeatherDisplay:10.37,2013-01-11 12:22:00,
2013-01-11 07:23:00,27.1,21.5,30.59,ESE,112,0.0,0.0,79,0.00,CLR,,0.00,WeatherDisplay:10.37,2013-01-11 12:23:00,
2013-01-11 07:25:00,27.1,21.5,30.59,ESE,112,0.0,0.0,79,0.00,CLR,,0.00,WeatherDisplay:10.37,2013-01-11 12:25:00,
2013-01-11 07:28:00,27.1,21.5,30.59,ESE,112,0.0,0.0,79,0.00,CLR,,0.00,WeatherDisplay:10.37,2013-01-11 12:28:00,
2013-01-11 07:30:00,27.1,21.5,30.59,ESE,112,0.0,0.0,79,0.00,CLR,,0.00,WeatherDisplay:10.37,2013-01-11 12:30:00,
2013-01-11 07:31:00,28.0,22.4,30.60,ESE,112,0.0,0.0,79,0.00,CLR,,0.00,WeatherDisplay:10.37,2013-01-11 12:31:00,
2013-01-11 07:33:00,28.0,22.4,30.60,ESE,112,0.0,0.0,79,0.00,CLR,,0.00,WeatherDisplay:10.37,2013-01-11 12:33:00,
2013-01-11 07:35:00,28.0,22.4,30.60,ESE,112,0.0,0.0,79,0.00,CLR,,0.00,WeatherDisplay:10.37,2013-01-11 12:35:00,
2013-01-11 07:36:00,28.0,22.4,30.60,ESE,112,0.0,0.0,79,0.00,CLR,,0.00,WeatherDisplay:10.37,2013-01-11 12:36:00,
2013-01-11 07:38:00,28.0,22.4,30.60,ESE,112,0.0,0.0,79,0.00,CLR,,0.00,WeatherDisplay:10.37,2013-01-11 12:38:00,
2013-01-11 07:40:00,28.0,22.4,30.60,ESE,112,0.0,0.0,79,0.00,CLR,,0.00,WeatherDisplay:10.37,2013-01-11 12:40:00,
2013-01-11 07:41:00,28.0,22.4,30.60,ESE,112,0.0,0.0,79,0.00,CLR,,0.00,WeatherDisplay:10.37,2013-01-11 12:41:00,
2013-01-11 07:43:00,28.0,22.4,30.60,ESE,112,0.0,0.0,79,0.00,CLR,,0.00,WeatherDisplay:10.37,2013-01-11 12:43:00,
2013-01-11 07:45:00,28.0,22.4,30.60,ESE,112,0.0,0.0,79,0.00,CLR,,0.00,WeatherDisplay:10.37,2013-01-11 12:45:00,
2013-01-11 07:46:00,28.0,22.4,30.60,ESE,112,0.0,0.0,79,0.00,CLR,,0.00,WeatherDisplay:10.37,2013-01-11 12:46:00,
2013-01-11 07:48:00,28.0,22.4,30.60,ESE,112,0.0,0.0,79,0.00,CLR,,0.00,WeatherDisplay:10.37,2013-01-11 12:48:00,
2013-01-11 07:51:00,28.0,22.4,30.60,ESE,112,0.0,0.0,79,0.00,CLR,,0.00,WeatherDisplay:10.37,2013-01-11 12:51:00,
2013-01-11 07:53:00,28.0,22.4,30.60,ESE,112,0.0,0.0,79,0.00,CLR,,0.00,WeatherDisplay:10.37,2013-01-11 12:53:00,
2013-01-11 07:54:00,28.0,22.4,30.60,ESE,112,0.0,0.0,79,0.00,CLR,,0.00,WeatherDisplay:10.37,2013-01-11 12:54:00,
2013-01-11 07:56:00,28.0,22.4,30.60,ESE,112,0.0,0.0,79,0.00,CLR,,0.00,WeatherDisplay:10.37,2013-01-11 12:56:00,
2013-01-11 07:59:00,28.0,22.4,30.60,ESE,112,0.0,0.0,79,0.00,CLR,,0.00,WeatherDisplay:10.37,2013-01-11 12:59:00,
2013-01-11 08:01:00,28.4,22.7,30.60,ESE,112,0.0,0.2,79,0.00,CLR,,0.00,WeatherDisplay:10.37,2013-01-11 13:01:00,
2013-01-11 08:04:00,28.4,22.7,30.60,ESE,112,0.0,0.2,79,0.00,CLR,,0.00,WeatherDisplay:10.37,2013-01-11 13:04:00,
2013-01-11 08:06:00,28.4,22.7,30.60,ESE,112,0.0,0.2,79,0.00,CLR,,0.00,WeatherDisplay:10.37,2013-01-11 13:06:00,
2013-01-11 08:08:00,28.4,22.7,30.60,ESE,112,0.0,0.2,79,0.00,CLR,,0.00,WeatherDisplay:10.37,2013-01-11 13:08:00,
2013-01-11 08:09:00,28.4,22.7,30.60,ESE,112,0.0,0.2,79,0.00,CLR,,0.00,WeatherDisplay:10.37,2013-01-11 13:09:00,
2013-01-11 08:11:00,28.4,22.7,30.60,ESE,112,0.0,0.2,79,0.00,CLR,,0.00,WeatherDisplay:10.37,2013-01-11 13:11:00,
2013-01-11 08:13:00,28.4,22.7,30.60,ESE,112,0.0,0.2,79,0.00,CLR,,0.00,WeatherDisplay:10.37,2013-01-11 13:13:00,
2013-01-11 08:14:00,28.4,22.7,30.60,ESE,112,0.0,0.2,79,0.00,CLR,,0.00,WeatherDisplay:10.37,2013-01-11 13:14:00,
2013-01-11 08:17:00,28.4,22.7,30.60,ESE,112,0.0,0.2,79,0.00,CLR,,0.00,WeatherDisplay:10.37,2013-01-11 13:17:00,
2013-01-11 08:18:00,28.4,22.7,30.60,ESE,112,0.0,0.2,79,0.00,CLR,,0.00,WeatherDisplay:10.37,2013-01-11 13:18:00,
2013-01-11 08:19:00,28.4,22.7,30.60,ESE,112,0.0,0.2,79,0.00,CLR,,0.00,WeatherDisplay:10.37,2013-01-11 13:19:00,
2013-01-11 08:22:00,28.4,22.7,30.60,ESE,112,0.0,0.2,79,0.00,CLR,,0.00,WeatherDisplay:10.37,2013-01-11 13:22:00,
2013-01-11 08:23:00,28.4,22.7,30.60,ESE,112,0.0,0.2,79,0.00,CLR,,0.00,WeatherDisplay:10.37,2013-01-11 13:23:00,
2013-01-11 08:24:00,28.4,22.7,30.60,ESE,112,0.0,0.2,79,0.00,CLR,,0.00,WeatherDisplay:10.37,2013-01-11 13:24:00,
2013-01-11 08:25:00,28.4,22.7,30.60,ESE,112,0.0,0.2,79,0.00,CLR,,0.00,WeatherDisplay:10.37,2013-01-11 13:25:00,
2013-01-11 08:27:00,28.4,22.7,30.60,ESE,112,0.0,0.2,79,0.00,CLR,,0.00,WeatherDisplay:10.37,2013-01-11 13:27:00,
2013-01-11 08:28:00,28.4,22.7,30.60,ESE,112,0.0,0.2,79,0.00,CLR,,0.00,WeatherDisplay:10.37,2013-01-11 13:28:00,
2013-01-11 08:29:00,28.4,22.7,30.60,ESE,112,0.0,0.2,79,0.00,CLR,,0.00,WeatherDisplay:10.37,2013-01-11 13:29:00,
2013-01-11 08:30:00,28.4,22.7,30.60,ESE,112,0.0,0.2,79,0.00,CLR,,0.00,WeatherDisplay:10.37,2013-01-11 13:30:00,
2013-01-11 08:32:00,29.8,23.8,30.60,ESE,112,0.0,0.2,78,0.00,CLR,,0.00,WeatherDisplay:10.37,2013-01-11 13:32:00,
2013-01-11 08:33:00,29.8,23.8,30.60,ESE,112,0.0,0.2,78,0.00,CLR,,0.00,WeatherDisplay:10.37,2013-01-11 13:33:00,
2013-01-11 08:34:00,29.8,23.8,30.60,ESE,112,0.0,0.2,78,0.00,CLR,,0.00,WeatherDisplay:10.37,2013-01-11 13:34:00,
2013-01-11 08:35:00,29.8,23.8,30.60,ESE,112,0.0,0.2,78,0.00,CLR,,0.00,WeatherDisplay:10.37,2013-01-11 13:35:00,
2013-01-11 08:37:00,29.8,23.8,30.60,ESE,112,0.0,0.2,78,0.00,CLR,,0.00,WeatherDisplay:10.37,2013-01-11 13:37:00,
2013-01-11 08:38:00,29.8,23.8,30.60,ESE,112,0.0,0.2,78,0.00,CLR,,0.00,WeatherDisplay:10.37,2013-01-11 13:38:00,
2013-01-11 08:39:00,29.8,23.8,30.60,ESE,112,0.0,0.2,78,0.00,CLR,,0.00,WeatherDisplay:10.37,2013-01-11 13:39:00,
2013-01-11 08:40:00,29.8,23.8,30.60,ESE,112,0.0,0.2,78,0.00,CLR,,0.00,WeatherDisplay:10.37,2013-01-11 13:40:00,
2013-01-11 08:42:00,29.8,23.8,30.60,ESE,112,0.0,0.2,78,0.00,CLR,,0.00,WeatherDisplay:10.37,2013-01-11 13:42:00,
2013-01-11 08:44:00,29.8,23.8,30.60,ESE,112,0.0,0.2,78,0.00,CLR,,0.00,WeatherDisplay:10.37,2013-01-11 13:44:00,
2013-01-11 08:45:00,29.8,23.8,30.60,ESE,112,0.0,0.2,78,0.00,CLR,,0.00,WeatherDisplay:10.37,2013-01-11 13:45:00,
2013-01-11 08:46:00,29.8,23.8,30.60,ESE,112,0.0,0.2,78,0.00,CLR,,0.00,WeatherDisplay:10.37,2013-01-11 13:46:00,
2013-01-11 08:47:00,29.8,23.8,30.60,ESE,112,0.2,0.2,78,0.00,CLR,,0.00,WeatherDisplay:10.37,2013-01-11 13:47:00,
2013-01-11 08:49:00,29.8,23.8,30.60,ESE,112,0.0,0.2,78,0.00,CLR,,0.00,WeatherDisplay:10.37,2013-01-11 13:49:00,
2013-01-11 08:51:00,29.8,23.8,30.60,ESE,112,0.0,0.2,78,0.00,CLR,,0.00,WeatherDisplay:10.37,2013-01-11 13:51:00,
2013-01-11 08:52:00,29.8,23.8,30.60,ESE,112,0.0,0.2,78,0.00,CLR,,0.00,WeatherDisplay:10.37,2013-01-11 13:52:00,
2013-01-11 08:55:00,29.8,23.8,30.60,ESE,112,0.0,0.2,78,0.00,CLR,,0.00,WeatherDisplay:10.37,2013-01-11 13:55:00,
2013-01-11 08:56:00,29.8,23.8,30.60,ESE,112,0.0,0.2,78,0.00,CLR,,0.00,WeatherDisplay:10.37,2013-01-11 13:56:00,
2013-01-11 08:57:00,29.8,23.8,30.60,ESE,112,0.0,0.2,78,0.00,CLR,,0.00,WeatherDisplay:10.37,2013-01-11 13:57:00,
2013-01-11 09:00:00,29.8,23.8,30.60,ESE,112,0.0,0.2,78,0.00,CLR,,0.00,WeatherDisplay:10.37,2013-01-11 14:00:00,
2013-01-11 09:02:00,30.9,24.9,30.60,ENE,68,0.0,0.2,78,0.00,CLR,,0.00,WeatherDisplay:10.37,2013-01-11 14:02:00,
2013-01-11 09:03:00,30.9,24.9,30.60,ENE,68,0.0,0.2,78,0.00,CLR,,0.00,WeatherDisplay:10.37,2013-01-11 14:03:00,
2013-01-11 09:05:00,30.9,24.9,30.60,ENE,68,0.0,0.2,78,0.00,CLR,,0.00,WeatherDisplay:10.37,2013-01-11 14:05:00,
2013-01-11 09:07:00,30.9,24.9,30.60,ENE,68,0.0,0.2,78,0.00,CLR,,0.00,WeatherDisplay:10.37,2013-01-11 14:07:00,
2013-01-11 09:08:00,30.9,24.9,30.60,ENE,68,0.0,0.2,78,0.00,CLR,,0.00,WeatherDisplay:10.37,2013-01-11 14:08:00,
2013-01-11 09:10:00,30.9,24.9,30.60,ENE,68,0.0,0.2,78,0.00,CLR,,0.00,WeatherDisplay:10.37,2013-01-11 14:10:00,
2013-01-11 09:12:00,30.9,24.9,30.60,ENE,68,0.0,0.2,78,0.00,CLR,,0.00,WeatherDisplay:10.37,2013-01-11 14:12:00,
2013-01-11 09:13:00,30.9,24.9,30.60,ENE,68,0.0,0.2,78,0.00,CLR,,0.00,WeatherDisplay:10.37,2013-01-11 14:13:00,
2013-01-11 09:15:00,30.9,24.9,30.60,ENE,68,0.2,0.2,78,0.00,CLR,,0.00,WeatherDisplay:10.37,2013-01-11 14:15:00,
2013-01-11 09:18:00,30.9,24.9,30.60,ENE,68,0.0,0.2,78,0.00,CLR,,0.00,WeatherDisplay:10.37,2013-01-11 14:18:00,
2013-01-11 09:20:00,30.9,24.9,30.60,ENE,68,0.0,0.2,78,0.00,CLR,,0.00,WeatherDisplay:10.37,2013-01-11 14:20:00,
2013-01-11 09:23:00,30.9,24.9,30.60,ENE,68,0.0,0.2,78,0.00,CLR,,0.00,WeatherDisplay:10.37,2013-01-11 14:23:00,
2013-01-11 09:26:00,30.9,24.9,30.60,ENE,68,0.0,0.2,78,0.00,CLR,,0.00,WeatherDisplay:10.37,2013-01-11 14:26:00,
2013-01-11 09:28:00,30.9,24.9,30.60,ENE,68,0.0,0.2,78,0.00,CLR,,0.00,WeatherDisplay:10.37,2013-01-11 14:28:00,
2013-01-11 09:29:00,30.9,24.9,30.60,ENE,68,0.0,0.2,78,0.00,CLR,,0.00,WeatherDisplay:10.37,2013-01-11 14:29:00,
2013-01-11 09:32:00,31.6,25.3,30.58,NE,45,0.0,0.0,77,0.00,CLR,,0.00,WeatherDisplay:10.37,2013-01-11 14:32:00,
2013-01-11 09:33:00,31.6,25.3,30.58,NE,45,0.0,0.0,77,0.00,CLR,,0.00,WeatherDisplay:10.37,2013-01-11 14:33:00,
2013-01-11 09:34:00,31.6,25.3,30.58,NE,45,0.0,0.0,77,0.00,CLR,,0.00,WeatherDisplay:10.37,2013-01-11 14:34:00,
2013-01-11 09:37:00,31.6,25.3,30.58,NE,45,0.0,0.0,77,0.00,CLR,,0.00,WeatherDisplay:10.37,2013-01-11 14:37:00,
2013-01-11 09:38:00,31.6,25.3,30.58,NE,45,0.0,0.0,77,0.00,CLR,,0.00,WeatherDisplay:10.37,2013-01-11 14:38:00,
2013-01-11 09:39:00,31.6,25.3,30.58,NE,45,0.0,0.0,77,0.00,CLR,,0.00,WeatherDisplay:10.37,2013-01-11 14:39:00,
2013-01-11 09:43:00,31.6,25.3,30.58,NE,45,0.0,0.0,77,0.00,CLR,,0.00,WeatherDisplay:10.37,2013-01-11 14:43:00,
2013-01-11 09:44:00,31.6,25.3,30.58,NE,45,0.0,0.0,77,0.00,CLR,,0.00,WeatherDisplay:10.37,2013-01-11 14:44:00,
2013-01-11 09:45:00,31.6,25.3,30.58,NE,45,0.0,0.0,77,0.00,CLR,,0.00,WeatherDisplay:10.37,2013-01-11 14:45:00,
2013-01-11 09:48:00,31.6,25.3,30.58,NE,45,0.0,0.0,77,0.00,CLR,,0.00,WeatherDisplay:10.37,2013-01-11 14:48:00,
2013-01-11 09:49:00,31.6,25.3,30.58,NE,45,0.0,0.0,77,0.00,CLR,,0.00,WeatherDisplay:10.37,2013-01-11 14:49:00,
2013-01-11 09:50:00,31.6,25.3,30.58,NE,45,0.0,0.0,77,0.00,CLR,,0.00,WeatherDisplay:10.37,2013-01-11 14:50:00,
2013-01-11 09:53:00,31.6,25.3,30.58,NE,45,0.0,0.0,77,0.00,CLR,,0.00,WeatherDisplay:10.37,2013-01-11 14:53:00,
2013-01-11 09:54:00,31.6,25.3,30.58,NE,45,0.0,0.0,77,0.00,CLR,,0.00,WeatherDisplay:10.37,2013-01-11 14:54:00,
2013-01-11 09:55:00,31.6,25.3,30.58,NE,45,0.0,0.0,77,0.00,CLR,,0.00,WeatherDisplay:10.37,2013-01-11 14:55:00,
2013-01-11 09:58:00,31.6,25.3,30.58,NE,45,0.0,0.0,77,0.00,CLR,,0.00,WeatherDisplay:10.37,2013-01-11 14:58:00,
2013-01-11 09:59:00,31.6,25.3,30.58,NE,45,0.0,0.0,77,0.00,CLR,,0.00,WeatherDisplay:10.37,2013-01-11 14:59:00,
2013-01-11 10:00:00,31.6,25.3,30.58,NE,45,0.0,0.0,77,0.00,CLR,,0.00,WeatherDisplay:10.37,2013-01-11 15:00:00,
2013-01-11 10:03:00,32.9,26.2,30.58,NE,45,0.0,0.0,76,0.00,CLR,,0.00,WeatherDisplay:10.37,2013-01-11 15:03:00,
2013-01-11 10:04:00,32.9,26.2,30.58,NE,45,0.0,0.0,76,0.00,CLR,,0.00,WeatherDisplay:10.37,2013-01-11 15:04:00,
2013-01-11 10:05:00,32.9,26.2,30.58,NE,45,0.0,0.0,76,0.00,CLR,,0.00,WeatherDisplay:10.37,2013-01-11 15:05:00,
2013-01-11 10:09:00,32.9,26.2,30.58,NE,45,0.0,0.0,76,0.00,CLR,,0.00,WeatherDisplay:10.37,2013-01-11 15:09:00,
2013-01-11 10:10:00,32.9,26.2,30.58,NE,45,0.0,0.0,76,0.00,CLR,,0.00,WeatherDisplay:10.37,2013-01-11 15:10:00,
2013-01-11 10:11:00,32.9,26.2,30.58,NE,45,0.0,0.0,76,0.00,CLR,,0.00,WeatherDisplay:10.37,2013-01-11 15:11:00,
2013-01-11 10:14:00,32.9,26.2,30.58,NE,45,0.0,0.0,76,0.00,CLR,,0.00,WeatherDisplay:10.37,2013-01-11 15:14:00,
2013-01-11 10:15:00,32.9,26.2,30.58,NE,45,0.0,0.0,76,0.00,CLR,,0.00,WeatherDisplay:10.37,2013-01-11 15:15:00,
2013-01-11 10:16:00,32.9,26.2,30.58,NE,45,0.0,0.0,76,0.00,CLR,,0.00,WeatherDisplay:10.37,2013-01-11 15:16:00,
2013-01-11 10:19:00,32.9,26.2,30.58,NE,45,0.0,0.0,76,0.00,CLR,,0.00,WeatherDisplay:10.37,2013-01-11 15:19:00,
2013-01-11 10:20:00,32.9,26.2,30.58,NE,45,0.0,0.0,76,0.00,CLR,,0.00,WeatherDisplay:10.37,2013-01-11 15:20:00,
2013-01-11 10:21:00,32.9,26.2,30.58,NE,45,0.0,0.0,76,0.00,CLR,,0.00,WeatherDisplay:10.37,2013-01-11 15:21:00,
2013-01-11 10:24:00,32.9,26.2,30.58,NE,45,0.0,0.0,76,0.00,CLR,,0.00,WeatherDisplay:10.37,2013-01-11 15:24:00,
2013-01-11 10:25:00,32.9,26.2,30.58,NE,45,0.0,0.0,76,0.00,CLR,,0.00,WeatherDisplay:10.37,2013-01-11 15:25:00,
2013-01-11 10:26:00,32.9,26.2,30.58,NE,45,0.0,0.0,76,0.00,CLR,,0.00,WeatherDisplay:10.37,2013-01-11 15:26:00,
2013-01-11 10:30:00,32.9,26.2,30.58,NE,45,0.0,0.0,76,0.00,CLR,,0.00,WeatherDisplay:10.37,2013-01-11 15:30:00,
2013-01-11 10:31:00,35.1,27.9,30.59,ENE,68,0.0,0.0,75,0.00,CLR,,0.00,WeatherDisplay:10.37,2013-01-11 15:31:00,
2013-01-11 10:32:00,35.1,27.9,30.59,ENE,68,0.0,0.0,75,0.00,CLR,,0.00,WeatherDisplay:10.37,2013-01-11 15:32:00,
2013-01-11 10:35:00,35.1,27.9,30.59,ENE,68,0.0,0.0,75,0.00,CLR,,0.00,WeatherDisplay:10.37,2013-01-11 15:35:00,
2013-01-11 10:36:00,35.1,27.9,30.59,ENE,68,0.0,0.0,75,0.00,CLR,,0.00,WeatherDisplay:10.37,2013-01-11 15:36:00,
2013-01-11 10:38:00,35.1,27.9,30.59,ENE,68,0.0,0.0,75,0.00,CLR,,0.00,WeatherDisplay:10.37,2013-01-11 15:38:00,
2013-01-11 10:40:00,35.1,27.9,30.59,ENE,68,0.0,0.0,75,0.00,CLR,,0.00,WeatherDisplay:10.37,2013-01-11 15:40:00,
2013-01-11 10:41:00,35.1,27.9,30.59,ENE,68,0.0,0.0,75,0.00,CLR,,0.00,WeatherDisplay:10.37,2013-01-11 15:41:00,
2013-01-11 10:43:00,35.1,27.9,30.59,ENE,68,0.0,0.0,75,0.00,CLR,,0.00,WeatherDisplay:10.37,2013-01-11 15:43:00,
2013-01-11 10:45:00,35.1,27.9,30.59,ENE,68,0.0,0.0,75,0.00,CLR,,0.00,WeatherDisplay:10.37,2013-01-11 15:45:00,
2013-01-11 10:46:00,35.1,27.9,30.59,ENE,68,0.0,0.0,75,0.00,CLR,,0.00,WeatherDisplay:10.37,2013-01-11 15:46:00,
2013-01-11 10:49:00,35.1,27.9,30.59,ENE,68,0.0,0.0,75,0.00,CLR,,0.00,WeatherDisplay:10.37,2013-01-11 15:49:00,
2013-01-11 10:50:00,35.1,27.9,30.59,ENE,68,0.0,0.0,75,0.00,CLR,,0.00,WeatherDisplay:10.37,2013-01-11 15:50:00,
2013-01-11 10:52:00,35.1,27.9,30.59,ENE,68,0.0,0.0,75,0.00,CLR,,0.00,WeatherDisplay:10.37,2013-01-11 15:52:00,
2013-01-11 10:54:00,35.1,27.9,30.59,ENE,68,0.0,0.0,75,0.00,CLR,,0.00,WeatherDisplay:10.37,2013-01-11 15:54:00,
2013-01-11 10:55:00,35.1,27.9,30.59,ENE,68,0.0,0.0,75,0.00,CLR,,0.00,WeatherDisplay:10.37,2013-01-11 15:55:00,
2013-01-11 10:57:00,35.1,27.9,30.59,ENE,68,0.0,0.0,75,0.00,CLR,,0.00,WeatherDisplay:10.37,2013-01-11 15:57:00,
2013-01-11 11:00:00,35.1,27.9,30.59,ENE,68,0.0,0.0,75,0.00,CLR,,0.00,WeatherDisplay:10.37,2013-01-11 16:00:00,
2013-01-11 11:03:00,36.9,29.0,30.57,East,90,0.0,0.0,73,0.00,CLR,,0.00,WeatherDisplay:10.37,2013-01-11 16:03:00,
2013-01-11 11:04:00,36.9,29.0,30.57,East,90,0.0,0.0,73,0.00,CLR,,0.00,WeatherDisplay:10.37,2013-01-11 16:04:00,
2013-01-11 11:05:00,36.9,29.0,30.57,East,90,0.0,0.0,73,0.00,CLR,,0.00,WeatherDisplay:10.37,2013-01-11 16:05:00,
2013-01-11 11:06:00,36.9,29.0,30.57,East,90,0.0,0.0,73,0.00,CLR,,0.00,WeatherDisplay:10.37,2013-01-11 16:06:00,
2013-01-11 11:08:00,36.9,29.0,30.57,East,90,0.0,0.0,73,0.00,CLR,,0.00,WeatherDisplay:10.37,2013-01-11 16:08:00,
2013-01-11 11:09:00,36.9,29.0,30.57,East,90,0.0,0.0,73,0.00,CLR,,0.00,WeatherDisplay:10.37,2013-01-11 16:09:00,
2013-01-11 11:10:00,36.9,29.0,30.57,East,90,0.0,0.0,73,0.00,CLR,,0.00,WeatherDisplay:10.37,2013-01-11 16:10:00,
2013-01-11 11:11:00,36.9,29.0,30.57,East,90,0.0,0.0,73,0.00,CLR,,0.00,WeatherDisplay:10.37,2013-01-11 16:11:00,
2013-01-11 11:13:00,36.9,29.0,30.57,East,90,0.0,0.0,73,0.00,CLR,,0.00,WeatherDisplay:10.37,2013-01-11 16:13:00,
2013-01-11 11:14:00,36.9,29.0,30.57,East,90,0.0,0.0,73,0.00,CLR,,0.00,WeatherDisplay:10.37,2013-01-11 16:14:00,
2013-01-11 11:16:00,36.9,29.0,30.57,East,90,0.0,0.0,73,0.00,CLR,,0.00,WeatherDisplay:10.37,2013-01-11 16:16:00,
2013-01-11 11:18:00,36.9,29.0,30.57,East,90,0.0,0.0,73,0.00,CLR,,0.00,WeatherDisplay:10.37,2013-01-11 16:18:00,
2013-01-11 11:20:00,36.9,29.0,30.57,East,90,0.0,0.0,73,0.00,CLR,,0.00,WeatherDisplay:10.37,2013-01-11 16:20:00,
2013-01-11 11:21:00,36.9,29.0,30.57,East,90,0.0,0.0,73,0.00,CLR,,0.00,WeatherDisplay:10.37,2013-01-11 16:21:00,
2013-01-11 11:23:00,36.9,29.0,30.57,East,90,0.0,0.0,73,0.00,CLR,,0.00,WeatherDisplay:10.37,2013-01-11 16:23:00,
2013-01-11 11:25:00,36.9,29.0,30.57,East,90,0.0,0.0,73,0.00,CLR,,0.00,WeatherDisplay:10.37,2013-01-11 16:25:00,
2013-01-11 11:26:00,36.9,29.0,30.57,East,90,0.0,0.0,73,0.00,CLR,,0.00,WeatherDisplay:10.37,2013-01-11 16:26:00,
2013-01-11 11:28:00,36.9,29.0,30.57,East,90,0.0,0.0,73,0.00,CLR,,0.00,WeatherDisplay:10.37,2013-01-11 16:28:00,
2013-01-11 11:30:00,36.9,29.0,30.57,East,90,0.0,0.0,73,0.00,CLR,,0.00,WeatherDisplay:10.37,2013-01-11 16:30:00,
2013-01-11 11:31:00,37.9,29.4,30.55,ENE,68,0.0,0.0,71,0.00,CLR,,0.00,WeatherDisplay:10.37,2013-01-11 16:31:00,
2013-01-11 11:34:00,37.9,29.4,30.55,ENE,68,0.0,0.0,71,0.00,CLR,,0.00,WeatherDisplay:10.37,2013-01-11 16:34:00,
2013-01-11 11:35:00,37.9,29.4,30.55,ENE,68,0.0,0.0,71,0.00,CLR,,0.00,WeatherDisplay:10.37,2013-01-11 16:35:00,
2013-01-11 11:36:00,37.9,29.4,30.55,ENE,68,0.0,0.0,71,0.00,CLR,,0.00,WeatherDisplay:10.37,2013-01-11 16:36:00,
2013-01-11 11:37:00,37.9,29.4,30.55,ENE,68,0.0,0.0,71,0.00,CLR,,0.00,WeatherDisplay:10.37,2013-01-11 16:37:00,
2013-01-11 11:39:00,37.9,29.4,30.55,ENE,68,0.0,0.0,71,0.00,CLR,,0.00,WeatherDisplay:10.37,2013-01-11 16:39:00,
2013-01-11 11:40:00,37.9,29.4,30.55,ENE,68,0.0,0.0,71,0.00,CLR,,0.00,WeatherDisplay:10.37,2013-01-11 16:40:00,
2013-01-11 11:41:00,37.9,29.4,30.55,ENE,68,0.0,0.0,71,0.00,CLR,,0.00,WeatherDisplay:10.37,2013-01-11 16:41:00,
2013-01-11 11:42:00,37.9,29.4,30.55,ENE,68,0.0,0.0,71,0.00,CLR,,0.00,WeatherDisplay:10.37,2013-01-11 16:42:00,
2013-01-11 11:45:00,37.9,29.4,30.55,ENE,68,0.0,0.0,71,0.00,CLR,,0.00,WeatherDisplay:10.37,2013-01-11 16:45:00,
2013-01-11 11:46:00,37.9,29.4,30.55,ENE,68,0.0,0.0,71,0.00,CLR,,0.00,WeatherDisplay:10.37,2013-01-11 16:46:00,
2013-01-11 11:47:00,37.9,29.4,30.55,ENE,68,0.0,0.0,71,0.00,CLR,,0.00,WeatherDisplay:10.37,2013-01-11 16:47:00,
2013-01-11 11:50:00,37.9,29.4,30.55,ENE,68,0.0,0.0,71,0.00,CLR,,0.00,WeatherDisplay:10.37,2013-01-11 16:50:00,
2013-01-11 11:51:00,37.9,29.4,30.55,ENE,68,0.0,0.0,71,0.00,CLR,,0.00,WeatherDisplay:10.37,2013-01-11 16:51:00,
2013-01-11 11:52:00,37.9,29.4,30.55,ENE,68,0.0,0.0,71,0.00,CLR,,0.00,WeatherDisplay:10.37,2013-01-11 16:52:00,
2013-01-11 11:55:00,37.9,29.4,30.55,ENE,68,0.0,0.0,71,0.00,CLR,,0.00,WeatherDisplay:10.37,2013-01-11 16:55:00,
2013-01-11 11:56:00,37.9,29.4,30.55,ENE,68,0.0,0.0,71,0.00,CLR,,0.00,WeatherDisplay:10.37,2013-01-11 16:56:00,
2013-01-11 11:57:00,37.9,29.4,30.55,ENE,68,0.0,0.0,71,0.00,CLR,,0.00,WeatherDisplay:10.37,2013-01-11 16:57:00,
2013-01-11 11:58:00,37.9,29.4,30.55,ENE,68,0.0,0.0,71,0.00,CLR,,0.00,WeatherDisplay:10.37,2013-01-11 16:58:00,
2013-01-11 12:00:00,37.9,29.4,30.55,ENE,68,0.0,0.0,71,0.00,CLR,,0.00,WeatherDisplay:10.37,2013-01-11 17:00:00,
2013-01-11 12:01:00,38.5,28.8,30.52,East,90,0.0,0.0,68,0.00,CLR,,0.00,WeatherDisplay:10.37,2013-01-11 17:01:00,
2013-01-11 12:03:00,38.5,28.8,30.52,East,90,0.0,0.0,68,0.00,CLR,,0.00,WeatherDisplay:10.37,2013-01-11 17:03:00,
2013-01-11 12:05:00,38.5,28.8,30.52,East,90,0.0,0.0,68,0.00,CLR,,0.00,WeatherDisplay:10.37,2013-01-11 17:05:00,
2013-01-11 12:06:00,38.5,28.8,30.52,East,90,0.0,0.0,68,0.00,CLR,,0.00,WeatherDisplay:10.37,2013-01-11 17:06:00,
2013-01-11 12:08:00,38.5,28.8,30.52,East,90,0.0,0.0,68,0.00,CLR,,0.00,WeatherDisplay:10.37,2013-01-11 17:08:00,
2013-01-11 12:10:00,38.5,28.8,30.52,East,90,0.0,0.0,68,0.00,CLR,,0.00,WeatherDisplay:10.37,2013-01-11 17:10:00,
2013-01-11 12:12:00,38.5,28.8,30.52,East,90,0.0,0.0,68,0.00,CLR,,0.00,WeatherDisplay:10.37,2013-01-11 17:12:00,
2013-01-11 12:13:00,38.5,28.8,30.52,East,90,0.0,0.0,68,0.00,CLR,,0.00,WeatherDisplay:10.37,2013-01-11 17:13:00,
2013-01-11 12:15:00,38.5,28.8,30.52,East,90,0.0,0.0,68,0.00,CLR,,0.00,WeatherDisplay:10.37,2013-01-11 17:15:00,
2013-01-11 12:17:00,38.5,28.8,30.52,East,90,0.0,0.0,68,0.00,CLR,,0.00,WeatherDisplay:10.37,2013-01-11 17:17:00,
2013-01-11 12:18:00,38.5,28.8,30.52,East,90,0.0,0.0,68,0.00,CLR,,0.00,WeatherDisplay:10.37,2013-01-11 17:18:00,
2013-01-11 12:20:00,38.5,28.8,30.52,East,90,0.0,0.0,68,0.00,CLR,,0.00,WeatherDisplay:10.37,2013-01-11 17:20:00,
2013-01-11 12:22:00,38.5,28.8,30.52,East,90,0.0,0.0,68,0.00,CLR,,0.00,WeatherDisplay:10.37,2013-01-11 17:22:00,
2013-01-11 12:23:00,38.5,28.8,30.52,East,90,0.0,0.0,68,0.00,CLR,,0.00,WeatherDisplay:10.37,2013-01-11 17:23:00,
2013-01-11 12:26:00,38.5,28.8,30.52,East,90,0.0,0.0,68,0.00,CLR,,0.00,WeatherDisplay:10.37,2013-01-11 17:26:00,
2013-01-11 12:28:00,38.5,28.8,30.52,East,90,0.0,0.0,68,0.00,CLR,,0.00,WeatherDisplay:10.37,2013-01-11 17:28:00,
2013-01-11 12:29:00,38.5,28.8,30.52,East,90,0.0,0.0,68,0.00,CLR,,0.00,WeatherDisplay:10.37,2013-01-11 17:29:00,
2013-01-11 12:31:00,39.0,29.0,30.50,ENE,68,0.0,0.0,67,0.00,CLR,,0.00,WeatherDisplay:10.37,2013-01-11 17:31:00,
2013-01-11 12:33:00,39.0,29.0,30.50,ENE,68,0.0,0.0,67,0.00,CLR,,0.00,WeatherDisplay:10.37,2013-01-11 17:33:00,
2013-01-11 12:35:00,39.0,29.0,30.50,ENE,68,0.0,0.0,67,0.00,CLR,,0.00,WeatherDisplay:10.37,2013-01-11 17:35:00,
2013-01-11 12:36:00,39.0,29.0,30.50,ENE,68,0.0,0.0,67,0.00,CLR,,0.00,WeatherDisplay:10.37,2013-01-11 17:36:00,
2013-01-11 12:39:00,39.0,29.0,30.50,ENE,68,0.0,0.0,67,0.00,CLR,,0.00,WeatherDisplay:10.37,2013-01-11 17:39:00,
2013-01-11 12:40:00,39.0,29.0,30.50,ENE,68,0.0,0.0,67,0.00,CLR,,0.00,WeatherDisplay:10.37,2013-01-11 17:40:00,
2013-01-11 12:41:00,39.0,29.0,30.50,ENE,68,0.0,0.0,67,0.00,CLR,,0.00,WeatherDisplay:10.37,2013-01-11 17:41:00,
2013-01-11 12:44:00,39.0,29.0,30.50,ENE,68,0.0,0.0,67,0.00,CLR,,0.00,WeatherDisplay:10.37,2013-01-11 17:44:00,
2013-01-11 12:45:00,39.0,29.0,30.50,ENE,68,0.0,0.0,67,0.00,CLR,,0.00,WeatherDisplay:10.37,2013-01-11 17:45:00,
2013-01-11 12:47:00,39.0,29.0,30.50,ENE,68,0.0,0.0,67,0.00,CLR,,0.00,WeatherDisplay:10.37,2013-01-11 17:47:00,
2013-01-11 12:49:00,39.0,29.0,30.50,ENE,68,0.0,0.0,67,0.00,CLR,,0.00,WeatherDisplay:10.37,2013-01-11 17:49:00,
2013-01-11 12:50:00,39.0,29.0,30.50,ENE,68,0.0,0.0,67,0.00,CLR,,0.00,WeatherDisplay:10.37,2013-01-11 17:50:00,
2013-01-11 12:52:00,39.0,29.0,30.50,ENE,68,0.0,0.0,67,0.00,CLR,,0.00,WeatherDisplay:10.37,2013-01-11 17:52:00,
2013-01-11 12:54:00,39.0,29.0,30.50,ENE,68,0.0,0.0,67,0.00,CLR,,0.00,WeatherDisplay:10.37,2013-01-11 17:54:00,
2013-01-11 12:55:00,39.0,29.0,30.50,ENE,68,0.0,0.0,67,0.00,CLR,,0.00,WeatherDisplay:10.37,2013-01-11 17:55:00,
2013-01-11 12:56:00,39.0,29.0,30.50,ENE,68,0.0,0.0,67,0.00,CLR,,0.00,WeatherDisplay:10.37,2013-01-11 17:56:00,
2013-01-11 12:57:00,39.0,29.0,30.50,ENE,68,0.0,0.0,67,0.00,CLR,,0.00,WeatherDisplay:10.37,2013-01-11 17:57:00,
2013-01-11 12:59:00,39.0,29.0,30.50,ENE,68,0.0,0.0,67,0.00,CLR,,0.00,WeatherDisplay:10.37,2013-01-11 17:59:00,
2013-01-11 13:01:00,39.9,29.8,30.48,NNW,338,0.0,0.0,67,0.00,CLR,,0.00,WeatherDisplay:10.37,2013-01-11 18:01:00,
2013-01-11 13:02:00,39.9,29.8,30.48,NNW,338,0.0,0.0,67,0.00,CLR,,0.00,WeatherDisplay:10.37,2013-01-11 18:02:00,
2013-01-11 13:04:00,39.9,29.8,30.48,NNW,338,0.0,0.0,67,0.00,CLR,,0.00,WeatherDisplay:10.37,2013-01-11 18:04:00,
2013-01-11 13:06:00,39.9,29.8,30.48,NNW,338,0.0,0.0,67,0.00,CLR,,0.00,WeatherDisplay:10.37,2013-01-11 18:06:00,
2013-01-11 13:08:00,39.9,29.8,30.48,NNW,338,0.0,0.0,67,0.00,CLR,,0.00,WeatherDisplay:10.37,2013-01-11 18:08:00,
2013-01-11 13:09:00,39.9,29.8,30.48,NNW,338,0.0,0.0,67,0.00,CLR,,0.00,WeatherDisplay:10.37,2013-01-11 18:09:00,
2013-01-11 13:11:00,39.9,29.8,30.48,NNW,338,0.0,0.0,67,0.00,CLR,,0.00,WeatherDisplay:10.37,2013-01-11 18:11:00,
2013-01-11 13:12:00,39.9,29.8,30.48,NNW,338,0.0,0.0,67,0.00,CLR,,0.00,WeatherDisplay:10.37,2013-01-11 18:12:00,
2013-01-11 13:13:00,39.9,29.8,30.48,NNW,338,0.0,0.0,67,0.00,CLR,,0.00,WeatherDisplay:10.37,2013-01-11 18:13:00,
2013-01-11 13:14:00,39.9,29.8,30.48,NNW,338,0.0,0.0,67,0.00,CLR,,0.00,WeatherDisplay:10.37,2013-01-11 18:14:00,
2013-01-11 13:17:00,39.9,29.8,30.48,NNW,338,0.0,0.0,67,0.00,CLR,,0.00,WeatherDisplay:10.37,2013-01-11 18:17:00,
2013-01-11 13:18:00,39.9,29.8,30.48,NNW,338,0.0,0.0,67,0.00,CLR,,0.00,WeatherDisplay:10.37,2013-01-11 18:18:00,
2013-01-11 13:20:00,39.9,29.8,30.48,NNW,338,0.0,0.0,67,0.00,CLR,,0.00,WeatherDisplay:10.37,2013-01-11 18:20:00,
2013-01-11 13:22:00,39.9,29.8,30.48,NNW,338,0.0,0.0,67,0.00,CLR,,0.00,WeatherDisplay:10.37,2013-01-11 18:22:00,
2013-01-11 13:23:00,39.9,29.8,30.48,NNW,338,0.0,0.0,67,0.00,CLR,,0.00,WeatherDisplay:10.37,2013-01-11 18:23:00,
2013-01-11 13:25:00,39.9,29.8,30.48,NNW,338,0.0,0.0,67,0.00,CLR,,0.00,WeatherDisplay:10.37,2013-01-11 18:25:00,
2013-01-11 13:27:00,39.9,29.8,30.48,NNW,338,0.0,0.0,67,0.00,CLR,,0.00,WeatherDisplay:10.37,2013-01-11 18:27:00,
2013-01-11 13:28:00,39.9,29.8,30.48,NNW,338,0.0,0.0,67,0.00,CLR,,0.00,WeatherDisplay:10.37,2013-01-11 18:28:00,
2013-01-11 13:30:00,39.9,29.8,30.48,NNW,338,0.0,0.0,67,0.00,CLR,,0.00,WeatherDisplay:10.37,2013-01-11 18:30:00,
2013-01-11 13:33:00,39.9,29.8,30.48,North,0,0.0,0.5,67,0.00,CLR,,0.00,WeatherDisplay:10.37,2013-01-11 18:33:00,
2013-01-11 13:34:00,39.9,29.8,30.48,North,0,0.0,0.5,67,0.00,CLR,,0.00,WeatherDisplay:10.37,2013-01-11 18:34:00,
2013-01-11 13:36:00,39.9,29.8,30.48,North,0,0.0,0.5,67,0.00,CLR,,0.00,WeatherDisplay:10.37,2013-01-11 18:36:00,
2013-01-11 13:38:00,39.9,29.8,30.48,North,0,0.0,0.5,67,0.00,CLR,,0.00,WeatherDisplay:10.37,2013-01-11 18:38:00,
2013-01-11 13:39:00,39.9,29.8,30.48,North,0,0.0,0.5,67,0.00,CLR,,0.00,WeatherDisplay:10.37,2013-01-11 18:39:00,
2013-01-11 13:41:00,39.9,29.8,30.48,North,0,0.0,0.5,67,0.00,CLR,,0.00,WeatherDisplay:10.37,2013-01-11 18:41:00,
2013-01-11 13:43:00,39.9,29.8,30.48,North,0,0.0,0.5,67,0.00,CLR,,0.00,WeatherDisplay:10.37,2013-01-11 18:43:00,
2013-01-11 13:44:00,39.9,29.8,30.48,North,0,0.0,0.5,67,0.00,CLR,,0.00,WeatherDisplay:10.37,2013-01-11 18:44:00,
2013-01-11 13:46:00,39.9,29.8,30.48,North,0,0.0,0.5,67,0.00,CLR,,0.00,WeatherDisplay:10.37,2013-01-11 18:46:00,
2013-01-11 13:48:00,39.9,29.8,30.48,North,0,0.0,0.5,67,0.00,CLR,,0.00,WeatherDisplay:10.37,2013-01-11 18:48:00,
2013-01-11 13:49:00,39.9,29.8,30.48,North,0,0.0,0.5,67,0.00,CLR,,0.00,WeatherDisplay:10.37,2013-01-11 18:49:00,
2013-01-11 13:52:00,39.9,29.8,30.48,North,0,0.0,0.5,67,0.00,CLR,,0.00,WeatherDisplay:10.37,2013-01-11 18:52:00,
2013-01-11 13:54:00,39.9,29.8,30.48,North,0,0.0,0.5,67,0.00,CLR,,0.00,WeatherDisplay:10.37,2013-01-11 18:54:00,
2013-01-11 13:58:00,39.9,29.8,30.48,North,0,0.0,0.5,67,0.00,CLR,,0.00,WeatherDisplay:10.37,2013-01-11 18:58:00,
2013-01-11 13:59:00,39.9,29.8,30.48,North,0,0.0,0.5,67,0.00,CLR,,0.00,WeatherDisplay:10.37,2013-01-11 18:59:00,
2013-01-11 14:03:00,39.9,29.8,30.47,NW,315,0.0,0.0,67,0.00,CLR,,0.00,WeatherDisplay:10.37,2013-01-11 19:03:00,
2013-01-11 14:04:00,39.9,29.8,30.47,NW,315,0.0,0.0,67,0.00,CLR,,0.00,WeatherDisplay:10.37,2013-01-11 19:04:00,
2013-01-11 14:05:00,39.9,29.8,30.47,NW,315,0.0,0.0,67,0.00,CLR,,0.00,WeatherDisplay:10.37,2013-01-11 19:05:00,
2013-01-11 14:08:00,39.9,29.8,30.47,NW,315,0.0,0.0,67,0.00,CLR,,0.00,WeatherDisplay:10.37,2013-01-11 19:08:00,
2013-01-11 14:09:00,39.9,29.8,30.47,NW,315,0.0,0.0,67,0.00,CLR,,0.00,WeatherDisplay:10.37,2013-01-11 19:09:00,
2013-01-11 14:10:00,39.9,29.8,30.47,NW,315,0.0,0.0,67,0.00,CLR,,0.00,WeatherDisplay:10.37,2013-01-11 19:10:00,
2013-01-11 14:13:00,39.9,29.8,30.47,NW,315,0.0,0.0,67,0.00,CLR,,0.00,WeatherDisplay:10.37,2013-01-11 19:13:00,
2013-01-11 14:14:00,39.9,29.8,30.47,NW,315,0.0,0.0,67,0.00,CLR,,0.00,WeatherDisplay:10.37,2013-01-11 19:14:00,
2013-01-11 14:15:00,39.9,29.8,30.47,NW,315,0.0,0.0,67,0.00,CLR,,0.00,WeatherDisplay:10.37,2013-01-11 19:15:00,
2013-01-11 14:19:00,39.9,29.8,30.47,NW,315,0.0,0.0,67,0.00,CLR,,0.00,WeatherDisplay:10.37,2013-01-11 19:19:00,
2013-01-11 14:20:00,39.9,29.8,30.47,NW,315,0.0,0.0,67,0.00,CLR,,0.00,WeatherDisplay:10.37,2013-01-11 19:20:00,
2013-01-11 14:24:00,39.9,29.8,30.47,NW,315,0.0,0.0,67,0.00,CLR,,0.00,WeatherDisplay:10.37,2013-01-11 19:24:00,
2013-01-11 14:25:00,39.9,29.8,30.47,NW,315,0.0,0.0,67,0.00,CLR,,0.00,WeatherDisplay:10.37,2013-01-11 19:25:00,
2013-01-11 14:26:00,39.9,29.8,30.47,NW,315,0.0,0.0,67,0.00,CLR,,0.00,WeatherDisplay:10.37,2013-01-11 19:26:00,
2013-01-11 14:29:00,39.9,29.8,30.47,NW,315,0.0,0.0,67,0.00,CLR,,0.00,WeatherDisplay:10.37,2013-01-11 19:29:00,
2013-01-11 14:30:00,39.9,29.8,30.47,NW,315,0.0,0.0,67,0.00,CLR,,0.00,WeatherDisplay:10.37,2013-01-11 19:30:00,
2013-01-11 14:31:00,39.9,29.8,30.47,SSW,202,0.0,0.0,67,0.00,CLR,,0.00,WeatherDisplay:10.37,2013-01-11 19:31:00,
2013-01-11 14:34:00,39.9,29.8,30.47,SSW,202,0.0,0.0,67,0.00,CLR,,0.00,WeatherDisplay:10.37,2013-01-11 19:34:00,
2013-01-11 14:35:00,39.9,29.8,30.47,SSW,202,0.0,0.0,67,0.00,CLR,,0.00,WeatherDisplay:10.37,2013-01-11 19:35:00,
2013-01-11 14:36:00,39.9,29.8,30.47,SSW,202,0.0,0.0,67,0.00,CLR,,0.00,WeatherDisplay:10.37,2013-01-11 19:36:00,
2013-01-11 14:39:00,39.9,29.8,30.47,SSW,202,0.0,0.0,67,0.00,CLR,,0.00,WeatherDisplay:10.37,2013-01-11 19:39:00,
2013-01-11 14:40:00,39.9,29.8,30.47,SSW,202,0.0,0.0,67,0.00,CLR,,0.00,WeatherDisplay:10.37,2013-01-11 19:40:00,
2013-01-11 14:41:00,39.9,29.8,30.47,SSW,202,0.0,0.0,67,0.00,CLR,,0.00,WeatherDisplay:10.37,2013-01-11 19:41:00,
2013-01-11 14:45:00,39.9,29.8,30.47,SSW,202,0.0,0.0,67,0.00,CLR,,0.00,WeatherDisplay:10.37,2013-01-11 19:45:00,
2013-01-11 14:46:00,39.9,29.8,30.47,SSW,202,0.0,0.0,67,0.00,CLR,,0.00,WeatherDisplay:10.37,2013-01-11 19:46:00,
2013-01-11 14:50:00,39.9,29.8,30.47,SSW,202,0.0,0.0,67,0.00,CLR,,0.00,WeatherDisplay:10.37,2013-01-11 19:50:00,
2013-01-11 14:51:00,39.9,29.8,30.47,SSW,202,0.0,0.0,67,0.00,CLR,,0.00,WeatherDisplay:10.37,2013-01-11 19:51:00,
2013-01-11 14:52:00,39.9,29.8,30.47,SSW,202,0.0,0.0,67,0.00,CLR,,0.00,WeatherDisplay:10.37,2013-01-11 19:52:00,
2013-01-11 14:55:00,39.9,29.8,30.47,SSW,202,0.0,0.0,67,0.00,CLR,,0.00,WeatherDisplay:10.37,2013-01-11 19:55:00,
2013-01-11 14:56:00,39.9,29.8,30.47,SSW,202,0.0,0.0,67,0.00,CLR,,0.00,WeatherDisplay:10.37,2013-01-11 19:56:00,
2013-01-11 14:57:00,39.9,29.8,30.47,SSW,202,0.0,0.0,67,0.00,CLR,,0.00,WeatherDisplay:10.37,2013-01-11 19:57:00,
2013-01-11 15:00:00,39.9,29.8,30.47,SSW,202,0.0,0.0,67,0.00,CLR,,0.00,WeatherDisplay:10.37,2013-01-11 20:00:00,
2013-01-11 15:01:00,39.2,30.6,30.44,ESE,112,0.0,0.0,71,0.00,CLR,,0.00,WeatherDisplay:10.37,2013-01-11 20:01:00,
2013-01-11 15:02:00,39.2,30.6,30.44,ESE,112,0.0,0.0,71,0.00,CLR,,0.00,WeatherDisplay:10.37,2013-01-11 20:02:00,
2013-01-11 15:05:00,39.2,30.6,30.44,ESE,112,0.0,0.0,71,0.00,CLR,,0.00,WeatherDisplay:10.37,2013-01-11 20:05:00,
2013-01-11 15:06:00,39.2,30.6,30.44,ESE,112,0.0,0.0,71,0.00,CLR,,0.00,WeatherDisplay:10.37,2013-01-11 20:06:00,
2013-01-11 15:07:00,39.2,30.6,30.44,ESE,112,0.0,0.0,71,0.00,CLR,,0.00,WeatherDisplay:10.37,2013-01-11 20:07:00,
2013-01-11 15:10:00,39.2,30.6,30.44,ESE,112,0.0,0.0,71,0.00,CLR,,0.00,WeatherDisplay:10.37,2013-01-11 20:10:00,
2013-01-11 15:11:00,39.2,30.6,30.44,ESE,112,0.0,0.0,71,0.00,CLR,,0.00,WeatherDisplay:10.37,2013-01-11 20:11:00,
2013-01-11 15:12:00,39.2,30.6,30.44,ESE,112,0.0,0.0,71,0.00,CLR,,0.00,WeatherDisplay:10.37,2013-01-11 20:12:00,
2013-01-11 15:15:00,39.2,30.6,30.44,ESE,112,0.0,0.0,71,0.00,CLR,,0.00,WeatherDisplay:10.37,2013-01-11 20:15:00,
2013-01-11 15:17:00,39.2,30.6,30.44,ESE,112,0.0,0.0,71,0.00,CLR,,0.00,WeatherDisplay:10.37,2013-01-11 20:17:00,
2013-01-11 15:18:00,39.2,30.6,30.44,ESE,112,0.0,0.0,71,0.00,CLR,,0.00,WeatherDisplay:10.37,2013-01-11 20:18:00,
2013-01-11 15:21:00,39.2,30.6,30.44,ESE,112,0.0,0.0,71,0.00,CLR,,0.00,WeatherDisplay:10.37,2013-01-11 20:21:00,
2013-01-11 15:22:00,39.2,30.6,30.44,ESE,112,0.0,0.0,71,0.00,CLR,,0.00,WeatherDisplay:10.37,2013-01-11 20:22:00,
2013-01-11 15:23:00,39.2,30.6,30.44,ESE,112,0.0,0.0,71,0.00,CLR,,0.00,WeatherDisplay:10.37,2013-01-11 20:23:00,
2013-01-11 15:26:00,39.2,30.6,30.44,ESE,112,0.0,0.0,71,0.00,CLR,,0.00,WeatherDisplay:10.37,2013-01-11 20:26:00,
2013-01-11 15:28:00,39.2,30.6,30.44,ESE,112,0.0,0.0,71,0.00,CLR,,0.00,WeatherDisplay:10.37,2013-01-11 20:28:00,
2013-01-11 15:31:00,38.5,30.9,30.44,ESE,112,0.0,0.0,74,0.00,CLR,,0.00,WeatherDisplay:10.37,2013-01-11 20:31:00,
2013-01-11 15:33:00,38.5,30.9,30.44,ESE,112,0.0,0.0,74,0.00,CLR,,0.00,WeatherDisplay:10.37,2013-01-11 20:33:00,
2013-01-11 15:36:00,38.5,30.9,30.44,ESE,112,0.0,0.0,74,0.00,CLR,,0.00,WeatherDisplay:10.37,2013-01-11 20:36:00,
2013-01-11 15:38:00,38.5,30.9,30.44,ESE,112,0.0,0.0,74,0.00,CLR,,0.00,WeatherDisplay:10.37,2013-01-11 20:38:00,
2013-01-11 15:39:00,38.5,30.9,30.44,ESE,112,0.0,0.0,74,0.00,CLR,,0.00,WeatherDisplay:10.37,2013-01-11 20:39:00,
2013-01-11 15:41:00,38.5,30.9,30.44,ESE,112,0.0,0.0,74,0.00,CLR,,0.00,WeatherDisplay:10.37,2013-01-11 20:41:00,
2013-01-11 15:43:00,38.5,30.9,30.44,ESE,112,0.0,0.0,74,0.00,CLR,,0.00,WeatherDisplay:10.37,2013-01-11 20:43:00,
2013-01-11 15:44:00,38.5,30.9,30.44,ESE,112,0.0,0.0,74,0.00,CLR,,0.00,WeatherDisplay:10.37,2013-01-11 20:44:00,
2013-01-11 15:46:00,38.5,30.9,30.44,ESE,112,0.0,0.0,74,0.00,CLR,,0.00,WeatherDisplay:10.37,2013-01-11 20:46:00,
2013-01-11 15:48:00,38.5,30.9,30.44,ESE,112,0.0,0.0,74,0.00,CLR,,0.00,WeatherDisplay:10.37,2013-01-11 20:48:00,
2013-01-11 15:49:00,38.5,30.9,30.44,ESE,112,0.0,0.0,74,0.00,CLR,,0.00,WeatherDisplay:10.37,2013-01-11 20:49:00,
2013-01-11 15:51:00,38.5,30.9,30.44,ESE,112,0.0,0.0,74,0.00,CLR,,0.00,WeatherDisplay:10.37,2013-01-11 20:51:00,
2013-01-11 15:53:00,38.5,30.9,30.44,ESE,112,0.0,0.0,74,0.00,CLR,,0.00,WeatherDisplay:10.37,2013-01-11 20:53:00,
2013-01-11 15:54:00,38.5,30.9,30.44,ESE,112,0.0,0.0,74,0.00,CLR,,0.00,WeatherDisplay:10.37,2013-01-11 20:54:00,
2013-01-11 15:55:00,38.5,30.9,30.44,ESE,112,0.0,0.0,74,0.00,CLR,,0.00,WeatherDisplay:10.37,2013-01-11 20:55:00,
2013-01-11 15:57:00,38.5,30.9,30.44,ESE,112,0.0,0.0,74,0.00,CLR,,0.00,WeatherDisplay:10.37,2013-01-11 20:57:00,
2013-01-11 15:58:00,38.5,30.9,30.44,ESE,112,0.0,0.0,74,0.00,CLR,,0.00,WeatherDisplay:10.37,2013-01-11 20:58:00,
2013-01-11 16:00:00,38.5,30.9,30.44,ESE,112,0.0,0.0,74,0.00,CLR,,0.00,WeatherDisplay:10.37,2013-01-11 21:00:00,
2013-01-11 16:02:00,37.9,31.0,30.42,North,0,0.0,0.0,76,0.00,CLR,,0.00,WeatherDisplay:10.37,2013-01-11 21:02:00,
2013-01-11 16:03:00,37.9,31.0,30.42,North,0,0.0,0.0,76,0.00,CLR,,0.00,WeatherDisplay:10.37,2013-01-11 21:03:00,
2013-01-11 16:05:00,37.9,31.0,30.42,North,0,0.0,0.0,76,0.00,CLR,,0.00,WeatherDisplay:10.37,2013-01-11 21:05:00,
2013-01-11 16:07:00,37.9,31.0,30.42,North,0,0.0,0.0,76,0.00,CLR,,0.00,WeatherDisplay:10.37,2013-01-11 21:07:00,
2013-01-11 16:08:00,37.9,31.0,30.42,North,0,0.0,0.0,76,0.00,CLR,,0.00,WeatherDisplay:10.37,2013-01-11 21:08:00,
2013-01-11 16:10:00,37.9,31.0,30.42,North,0,0.0,0.0,76,0.00,CLR,,0.00,WeatherDisplay:10.37,2013-01-11 21:10:00,
2013-01-11 16:12:00,37.9,31.0,30.42,North,0,0.0,0.0,76,0.00,CLR,,0.00,WeatherDisplay:10.37,2013-01-11 21:12:00,
2013-01-11 16:14:00,37.9,31.0,30.42,North,0,0.0,0.0,76,0.00,CLR,,0.00,WeatherDisplay:10.37,2013-01-11 21:14:00,
2013-01-11 16:15:00,37.9,31.0,30.42,North,0,0.0,0.0,76,0.00,CLR,,0.00,WeatherDisplay:10.37,2013-01-11 21:15:00,
2013-01-11 16:17:00,37.9,31.0,30.42,North,0,0.0,0.0,76,0.00,CLR,,0.00,WeatherDisplay:10.37,2013-01-11 21:17:00,
2013-01-11 16:19:00,37.9,31.0,30.42,North,0,0.0,0.0,76,0.00,CLR,,0.00,WeatherDisplay:10.37,2013-01-11 21:19:00,
2013-01-11 16:21:00,37.9,31.0,30.42,North,0,0.0,0.0,76,0.00,CLR,,0.00,WeatherDisplay:10.37,2013-01-11 21:21:00,
2013-01-11 16:22:00,37.9,31.0,30.42,North,0,0.0,0.0,76,0.00,CLR,,0.00,WeatherDisplay:10.37,2013-01-11 21:22:00,
2013-01-11 16:24:00,37.9,31.0,30.42,North,0,0.0,0.0,76,0.00,CLR,,0.00,WeatherDisplay:10.37,2013-01-11 21:24:00,
2013-01-11 16:26:00,37.9,31.0,30.42,North,0,0.0,0.0,76,0.00,CLR,,0.00,WeatherDisplay:10.37,2013-01-11 21:26:00,
2013-01-11 16:27:00,37.9,31.0,30.42,North,0,0.0,0.0,76,0.00,CLR,,0.00,WeatherDisplay:10.37,2013-01-11 21:27:00,
2013-01-11 16:31:00,37.8,31.2,30.42,ENE,68,0.0,0.0,77,0.00,CLR,,0.00,WeatherDisplay:10.37,2013-01-11 21:31:00,
2013-01-11 16:33:00,37.8,31.2,30.42,ENE,68,0.0,0.0,77,0.00,CLR,,0.00,WeatherDisplay:10.37,2013-01-11 21:33:00,
2013-01-11 16:36:00,37.8,31.2,30.42,ENE,68,0.0,0.0,77,0.00,CLR,,0.00,WeatherDisplay:10.37,2013-01-11 21:36:00,
2013-01-11 16:37:00,37.8,31.2,30.42,ENE,68,0.0,0.0,77,0.00,CLR,,0.00,WeatherDisplay:10.37,2013-01-11 21:37:00,
2013-01-11 16:38:00,37.8,31.2,30.42,ENE,68,0.0,0.0,77,0.00,CLR,,0.00,WeatherDisplay:10.37,2013-01-11 21:38:00,
2013-01-11 16:41:00,37.8,31.2,30.42,ENE,68,0.0,0.0,77,0.00,CLR,,0.00,WeatherDisplay:10.37,2013-01-11 21:41:00,
2013-01-11 16:42:00,37.8,31.2,30.42,ENE,68,0.0,0.0,77,0.00,CLR,,0.00,WeatherDisplay:10.37,2013-01-11 21:42:00,
2013-01-11 16:43:00,37.8,31.2,30.42,ENE,68,0.0,0.0,77,0.00,CLR,,0.00,WeatherDisplay:10.37,2013-01-11 21:43:00,
2013-01-11 16:46:00,37.8,31.2,30.42,ENE,68,0.0,0.0,77,0.00,CLR,,0.00,WeatherDisplay:10.37,2013-01-11 21:46:00,
2013-01-11 16:47:00,37.8,31.2,30.42,ENE,68,0.0,0.0,77,0.00,CLR,,0.00,WeatherDisplay:10.37,2013-01-11 21:47:00,
2013-01-11 16:48:00,37.8,31.2,30.42,ENE,68,0.0,0.0,77,0.00,CLR,,0.00,WeatherDisplay:10.37,2013-01-11 21:48:00,
2013-01-11 16:52:00,37.8,31.2,30.42,ENE,68,0.0,0.0,77,0.00,CLR,,0.00,WeatherDisplay:10.37,2013-01-11 21:52:00,
2013-01-11 16:53:00,37.8,31.2,30.42,ENE,68,0.0,0.0,77,0.00,CLR,,0.00,WeatherDisplay:10.37,2013-01-11 21:53:00,
2013-01-11 16:57:00,37.8,31.2,30.42,ENE,68,0.0,0.0,77,0.00,CLR,,0.00,WeatherDisplay:10.37,2013-01-11 21:57:00,
2013-01-11 16:58:00,37.8,31.2,30.42,ENE,68,0.0,0.0,77,0.00,CLR,,0.00,WeatherDisplay:10.37,2013-01-11 21:58:00,
2013-01-11 16:59:00,37.8,31.2,30.42,ENE,68,0.0,0.0,77,0.00,CLR,,0.00,WeatherDisplay:10.37,2013-01-11 21:59:00,
2013-01-11 17:02:00,37.6,31.3,30.40,ESE,112,0.0,0.0,78,0.00,CLR,,0.00,WeatherDisplay:10.37,2013-01-11 22:02:00,
2013-01-11 17:03:00,37.6,31.3,30.40,ESE,112,0.0,0.0,78,0.00,CLR,,0.00,WeatherDisplay:10.37,2013-01-11 22:03:00,
2013-01-11 17:04:00,37.6,31.3,30.40,ESE,112,0.0,0.0,78,0.00,CLR,,0.00,WeatherDisplay:10.37,2013-01-11 22:04:00,
2013-01-11 17:07:00,37.6,31.3,30.40,ESE,112,0.0,0.0,78,0.00,CLR,,0.00,WeatherDisplay:10.37,2013-01-11 22:07:00,
2013-01-11 17:08:00,37.6,31.3,30.40,ESE,112,0.0,0.0,78,0.00,CLR,,0.00,WeatherDisplay:10.37,2013-01-11 22:08:00,
2013-01-11 17:09:00,37.6,31.3,30.40,ESE,112,0.0,0.0,78,0.00,CLR,,0.00,WeatherDisplay:10.37,2013-01-11 22:09:00,
2013-01-11 17:13:00,37.6,31.3,30.40,ESE,112,0.0,0.0,78,0.00,CLR,,0.00,WeatherDisplay:10.37,2013-01-11 22:13:00,
2013-01-11 17:14:00,37.6,31.3,30.40,ESE,112,0.0,0.0,78,0.00,CLR,,0.00,WeatherDisplay:10.37,2013-01-11 22:14:00,
2013-01-11 17:18:00,37.6,31.3,30.40,ESE,112,0.0,0.0,78,0.00,CLR,,0.00,WeatherDisplay:10.37,2013-01-11 22:18:00,
2013-01-11 17:21:00,37.6,31.3,30.40,ESE,112,0.0,0.0,78,0.00,CLR,,0.00,WeatherDisplay:10.37,2013-01-11 22:21:00,
2013-01-11 17:23:00,37.6,31.3,30.40,ESE,112,0.0,0.0,78,0.00,CLR,,0.00,WeatherDisplay:10.37,2013-01-11 22:23:00,
2013-01-11 17:24:00,37.6,31.3,30.40,ESE,112,0.0,0.0,78,0.00,CLR,,0.00,WeatherDisplay:10.37,2013-01-11 22:24:00,
2013-01-11 17:26:00,37.6,31.3,30.40,ESE,112,0.0,0.0,78,0.00,CLR,,0.00,WeatherDisplay:10.37,2013-01-11 22:26:00,
2013-01-11 17:28:00,37.6,31.3,30.40,ESE,112,0.0,0.0,78,0.00,CLR,,0.00,WeatherDisplay:10.37,2013-01-11 22:28:00,
2013-01-11 17:29:00,37.6,31.3,30.40,ESE,112,0.0,0.0,78,0.00,CLR,,0.00,WeatherDisplay:10.37,2013-01-11 22:29:00,
2013-01-11 17:31:00,37.2,31.0,30.38,SE,135,0.0,0.0,78,0.00,CLR,,0.00,WeatherDisplay:10.37,2013-01-11 22:31:00,
2013-01-11 17:33:00,37.2,31.0,30.38,SE,135,0.0,0.0,78,0.00,CLR,,0.00,WeatherDisplay:10.37,2013-01-11 22:33:00,
2013-01-11 17:34:00,37.2,31.0,30.38,SE,135,0.0,0.0,78,0.00,CLR,,0.00,WeatherDisplay:10.37,2013-01-11 22:34:00,
2013-01-11 17:35:00,37.2,31.0,30.38,SE,135,0.0,0.0,78,0.00,CLR,,0.00,WeatherDisplay:10.37,2013-01-11 22:35:00,
2013-01-11 17:36:00,37.2,31.0,30.38,SE,135,0.0,0.0,78,0.00,CLR,,0.00,WeatherDisplay:10.37,2013-01-11 22:36:00,
2013-01-11 17:38:00,37.2,31.0,30.38,SE,135,0.0,0.0,78,0.00,CLR,,0.00,WeatherDisplay:10.37,2013-01-11 22:38:00,
2013-01-11 17:39:00,37.2,31.0,30.38,SE,135,0.0,0.0,78,0.00,CLR,,0.00,WeatherDisplay:10.37,2013-01-11 22:39:00,
2013-01-11 17:40:00,37.2,31.0,30.38,SE,135,0.0,0.0,78,0.00,CLR,,0.00,WeatherDisplay:10.37,2013-01-11 22:40:00,
2013-01-11 17:41:00,37.2,31.0,30.38,SE,135,0.0,0.0,78,0.00,CLR,,0.00,WeatherDisplay:10.37,2013-01-11 22:41:00,
2013-01-11 17:43:00,37.2,31.0,30.38,SE,135,0.0,0.0,78,0.00,CLR,,0.00,WeatherDisplay:10.37,2013-01-11 22:43:00,
2013-01-11 17:44:00,37.2,31.0,30.38,SE,135,0.0,0.0,78,0.00,CLR,,0.00,WeatherDisplay:10.37,2013-01-11 22:44:00,
2013-01-11 17:45:00,37.2,31.0,30.38,SE,135,0.0,0.0,78,0.00,CLR,,0.00,WeatherDisplay:10.37,2013-01-11 22:45:00,
2013-01-11 17:47:00,37.2,31.0,30.38,SE,135,0.0,0.0,78,0.00,CLR,,0.00,WeatherDisplay:10.37,2013-01-11 22:47:00,
2013-01-11 17:49:00,37.2,31.0,30.38,SE,135,0.0,0.0,78,0.00,CLR,,0.00,WeatherDisplay:10.37,2013-01-11 22:49:00,
2013-01-11 17:50:00,37.2,31.0,30.38,SE,135,0.0,0.0,78,0.00,CLR,,0.00,WeatherDisplay:10.37,2013-01-11 22:50:00,
2013-01-11 17:52:00,37.2,31.0,30.38,SE,135,0.0,0.0,78,0.00,CLR,,0.00,WeatherDisplay:10.37,2013-01-11 22:52:00,
2013-01-11 17:54:00,37.2,31.0,30.38,SE,135,0.0,0.0,78,0.00,CLR,,0.00,WeatherDisplay:10.37,2013-01-11 22:54:00,
2013-01-11 17:56:00,37.2,31.0,30.38,SE,135,0.0,0.0,78,0.00,CLR,,0.00,WeatherDisplay:10.37,2013-01-11 22:56:00,
2013-01-11 17:57:00,37.2,31.0,30.38,SE,135,0.0,0.0,78,0.00,CLR,,0.00,WeatherDisplay:10.37,2013-01-11 22:57:00,
2013-01-11 17:59:00,37.2,31.0,30.38,SE,135,0.0,0.0,78,0.00,CLR,,0.00,WeatherDisplay:10.37,2013-01-11 22:59:00,
2013-01-11 18:01:00,36.7,31.1,30.39,NE,45,0.0,0.0,80,0.00,CLR,,0.00,WeatherDisplay:10.37,2013-01-11 23:01:00,
2013-01-11 18:02:00,36.7,31.1,30.39,NE,45,0.0,0.0,80,0.00,CLR,,0.00,WeatherDisplay:10.37,2013-01-11 23:02:00,
2013-01-11 18:04:00,36.7,31.1,30.39,NE,45,0.0,0.0,80,0.00,CLR,,0.00,WeatherDisplay:10.37,2013-01-11 23:04:00,
2013-01-11 18:06:00,36.7,31.1,30.39,NE,45,0.0,0.0,80,0.00,CLR,,0.00,WeatherDisplay:10.37,2013-01-11 23:06:00,
2013-01-11 18:07:00,36.7,31.1,30.39,NE,45,0.0,0.0,80,0.00,CLR,,0.00,WeatherDisplay:10.37,2013-01-11 23:07:00,
2013-01-11 18:09:00,36.7,31.1,30.39,NE,45,0.0,0.0,80,0.00,CLR,,0.00,WeatherDisplay:10.37,2013-01-11 23:09:00,
2013-01-11 18:10:00,36.7,31.1,30.39,NE,45,0.0,0.0,80,0.00,CLR,,0.00,WeatherDisplay:10.37,2013-01-11 23:10:00,
2013-01-11 18:11:00,36.7,31.1,30.39,NE,45,0.0,0.0,80,0.00,CLR,,0.00,WeatherDisplay:10.37,2013-01-11 23:11:00,
2013-01-11 18:13:00,36.7,31.1,30.39,NE,45,0.0,0.0,80,0.00,CLR,,0.00,WeatherDisplay:10.37,2013-01-11 23:13:00,
2013-01-11 18:14:00,36.7,31.1,30.39,NE,45,0.0,0.0,80,0.00,CLR,,0.00,WeatherDisplay:10.37,2013-01-11 23:14:00,
2013-01-11 18:15:00,36.7,31.1,30.39,NE,45,0.0,0.0,80,0.00,CLR,,0.00,WeatherDisplay:10.37,2013-01-11 23:15:00,
2013-01-11 18:16:00,36.7,31.1,30.39,NE,45,0.0,0.0,80,0.00,CLR,,0.00,WeatherDisplay:10.37,2013-01-11 23:16:00,
2013-01-11 18:18:00,36.7,31.1,30.39,NE,45,0.0,0.0,80,0.00,CLR,,0.00,WeatherDisplay:10.37,2013-01-11 23:18:00,
2013-01-11 18:19:00,36.7,31.1,30.39,NE,45,0.0,0.0,80,0.00,CLR,,0.00,WeatherDisplay:10.37,2013-01-11 23:19:00,
2013-01-11 18:20:00,36.7,31.1,30.39,NE,45,0.0,0.0,80,0.00,CLR,,0.00,WeatherDisplay:10.37,2013-01-11 23:20:00,
2013-01-11 18:22:00,36.7,31.1,30.39,NE,45,0.0,0.0,80,0.00,CLR,,0.00,WeatherDisplay:10.37,2013-01-11 23:22:00,
2013-01-11 18:23:00,36.7,31.1,30.39,NE,45,0.0,0.0,80,0.00,CLR,,0.00,WeatherDisplay:10.37,2013-01-11 23:23:00,
2013-01-11 18:24:00,36.7,31.1,30.39,NE,45,0.0,0.0,80,0.00,CLR,,0.00,WeatherDisplay:10.37,2013-01-11 23:24:00,
2013-01-11 18:26:00,36.7,31.1,30.39,NE,45,0.0,0.0,80,0.00,CLR,,0.00,WeatherDisplay:10.37,2013-01-11 23:26:00,
2013-01-11 18:27:00,36.7,31.1,30.39,NE,45,0.0,0.0,80,0.00,CLR,,0.00,WeatherDisplay:10.37,2013-01-11 23:27:00,
2013-01-11 18:28:00,36.7,31.1,30.39,NE,45,0.0,0.0,80,0.00,CLR,,0.00,WeatherDisplay:10.37,2013-01-11 23:28:00,
2013-01-11 18:30:00,36.7,31.1,30.39,NE,45,0.0,0.0,80,0.00,CLR,,0.00,WeatherDisplay:10.37,2013-01-11 23:30:00,
2013-01-11 18:31:00,37.0,31.8,30.36,NE,45,0.0,0.0,81,0.00,CLR,,0.00,WeatherDisplay:10.37,2013-01-11 23:31:00,
2013-01-11 18:32:00,37.0,31.8,30.36,NE,45,0.0,0.0,81,0.00,CLR,,0.00,WeatherDisplay:10.37,2013-01-11 23:32:00,
2013-01-11 18:33:00,37.0,31.8,30.36,NE,45,0.0,0.0,81,0.00,CLR,,0.00,WeatherDisplay:10.37,2013-01-11 23:33:00,
2013-01-11 18:36:00,37.0,31.8,30.36,NE,45,0.0,0.0,81,0.00,CLR,,0.00,WeatherDisplay:10.37,2013-01-11 23:36:00,
2013-01-11 18:38:00,37.0,31.8,30.36,NE,45,0.0,0.0,81,0.00,CLR,,0.00,WeatherDisplay:10.37,2013-01-11 23:38:00,
2013-01-11 18:41:00,37.0,31.8,30.36,NE,45,0.0,0.0,81,0.00,CLR,,0.00,WeatherDisplay:10.37,2013-01-11 23:41:00,
2013-01-11 18:42:00,37.0,31.8,30.36,NE,45,0.0,0.0,81,0.00,CLR,,0.00,WeatherDisplay:10.37,2013-01-11 23:42:00,
2013-01-11 18:44:00,37.0,31.8,30.36,NE,45,0.0,0.0,81,0.00,CLR,,0.00,WeatherDisplay:10.37,2013-01-11 23:44:00,
2013-01-11 18:46:00,37.0,31.8,30.36,NE,45,0.0,0.0,81,0.00,CLR,,0.00,WeatherDisplay:10.37,2013-01-11 23:46:00,
2013-01-11 18:47:00,37.0,31.8,30.36,NE,45,0.0,0.0,81,0.00,CLR,,0.00,WeatherDisplay:10.37,2013-01-11 23:47:00,
2013-01-11 18:49:00,37.0,31.8,30.36,NE,45,0.0,0.0,81,0.00,CLR,,0.00,WeatherDisplay:10.37,2013-01-11 23:49:00,
2013-01-11 18:51:00,37.0,31.8,30.36,NE,45,0.0,0.0,81,0.00,CLR,,0.00,WeatherDisplay:10.37,2013-01-11 23:51:00,
2013-01-11 18:52:00,37.0,31.8,30.36,NE,45,0.0,0.0,81,0.00,CLR,,0.00,WeatherDisplay:10.37,2013-01-11 23:52:00,
2013-01-11 18:54:00,37.0,31.8,30.36,NE,45,0.0,0.0,81,0.00,CLR,,0.00,WeatherDisplay:10.37,2013-01-11 23:54:00,
2013-01-11 18:56:00,37.0,31.8,30.36,NE,45,0.0,0.0,81,0.00,CLR,,0.00,WeatherDisplay:10.37,2013-01-11 23:56:00,
2013-01-11 18:57:00,37.0,31.8,30.36,NE,45,0.0,0.0,81,0.00,CLR,,0.00,WeatherDisplay:10.37,2013-01-11 23:57:00,
2013-01-11 18:59:00,37.0,31.8,30.36,NE,45,0.0,0.0,81,0.00,CLR,,0.00,WeatherDisplay:10.37,2013-01-11 23:59:00,
2013-01-11 19:00:00,37.0,31.8,30.36,NE,45,0.0,0.0,81,0.00,CLR,,0.00,WeatherDisplay:10.37,2013-01-12 00:00:00,
2013-01-11 19:01:00,37.4,32.4,30.35,ESE,112,0.0,0.0,82,0.00,CLR,,0.00,WeatherDisplay:10.37,2013-01-12 00:01:00,
2013-01-11 19:03:00,37.4,32.4,30.35,ESE,112,0.0,0.0,82,0.00,CLR,,0.00,WeatherDisplay:10.37,2013-01-12 00:03:00,
2013-01-11 19:05:00,37.4,32.4,30.35,ESE,112,0.0,0.0,82,0.00,CLR,,0.00,WeatherDisplay:10.37,2013-01-12 00:05:00,
2013-01-11 19:06:00,37.4,32.4,30.35,ESE,112,0.0,0.0,82,0.00,CLR,,0.00,WeatherDisplay:10.37,2013-01-12 00:06:00,
2013-01-11 19:08:00,37.4,32.4,30.35,ESE,112,0.0,0.0,82,0.00,CLR,,0.00,WeatherDisplay:10.37,2013-01-12 00:08:00,
2013-01-11 19:10:00,37.4,32.4,30.35,ESE,112,0.0,0.0,82,0.00,CLR,,0.00,WeatherDisplay:10.37,2013-01-12 00:10:00,
2013-01-11 19:11:00,37.4,32.4,30.35,ESE,112,0.0,0.0,82,0.00,CLR,,0.00,WeatherDisplay:10.37,2013-01-12 00:11:00,
2013-01-11 19:13:00,37.4,32.4,30.35,ESE,112,0.0,0.0,82,0.00,CLR,,0.00,WeatherDisplay:10.37,2013-01-12 00:13:00,
2013-01-11 19:15:00,37.4,32.4,30.35,ESE,112,0.0,0.0,82,0.00,CLR,,0.00,WeatherDisplay:10.37,2013-01-12 00:15:00,
2013-01-11 19:16:00,37.4,32.4,30.35,ESE,112,0.0,0.0,82,0.00,CLR,,0.00,WeatherDisplay:10.37,2013-01-12 00:16:00,
2013-01-11 19:18:00,37.4,32.4,30.35,ESE,112,0.0,0.0,82,0.00,CLR,,0.00,WeatherDisplay:10.37,2013-01-12 00:18:00,
2013-01-11 19:20:00,37.4,32.4,30.35,ESE,112,0.0,0.0,82,0.00,CLR,,0.00,WeatherDisplay:10.37,2013-01-12 00:20:00,
2013-01-11 19:22:00,37.4,32.4,30.35,ESE,112,0.0,0.0,82,0.00,CLR,,0.00,WeatherDisplay:10.37,2013-01-12 00:22:00,
2013-01-11 19:23:00,37.4,32.4,30.35,ESE,112,0.0,0.0,82,0.00,CLR,,0.00,WeatherDisplay:10.37,2013-01-12 00:23:00,
2013-01-11 19:25:00,37.4,32.4,30.35,ESE,112,0.0,0.0,82,0.00,CLR,,0.00,WeatherDisplay:10.37,2013-01-12 00:25:00,
2013-01-11 19:27:00,37.4,32.4,30.35,ESE,112,0.0,0.0,82,0.00,CLR,,0.00,WeatherDisplay:10.37,2013-01-12 00:27:00,
2013-01-11 19:28:00,37.4,32.4,30.35,ESE,112,0.0,0.0,82,0.00,CLR,,0.00,WeatherDisplay:10.37,2013-01-12 00:28:00,
2013-01-11 19:30:00,37.4,32.4,30.35,ESE,112,0.0,0.0,82,0.00,CLR,,0.00,WeatherDisplay:10.37,2013-01-12 00:30:00,
2013-01-11 19:32:00,37.9,33.5,30.33,SE,135,0.0,0.0,84,0.00,CLR,,0.00,WeatherDisplay:10.37,2013-01-12 00:32:00,
2013-01-11 19:33:00,37.9,33.5,30.33,SE,135,0.0,0.0,84,0.00,CLR,,0.00,WeatherDisplay:10.37,2013-01-12 00:33:00,
2013-01-11 19:35:00,37.9,33.5,30.33,SE,135,0.0,0.0,84,0.00,CLR,,0.00,WeatherDisplay:10.37,2013-01-12 00:35:00,
2013-01-11 19:36:00,37.9,33.5,30.33,SE,135,0.0,0.0,84,0.00,CLR,,0.00,WeatherDisplay:10.37,2013-01-12 00:36:00,
2013-01-11 19:37:00,37.9,33.5,30.33,SE,135,0.0,0.0,84,0.00,CLR,,0.00,WeatherDisplay:10.37,2013-01-12 00:37:00,
2013-01-11 19:38:00,37.9,33.5,30.33,SE,135,0.0,0.0,84,0.00,CLR,,0.00,WeatherDisplay:10.37,2013-01-12 00:38:00,
2013-01-11 19:41:00,37.9,33.5,30.33,SE,135,0.0,0.0,84,0.00,CLR,,0.00,WeatherDisplay:10.37,2013-01-12 00:41:00,
2013-01-11 19:42:00,37.9,33.5,30.33,SE,135,0.0,0.0,84,0.00,CLR,,0.00,WeatherDisplay:10.37,2013-01-12 00:42:00,
2013-01-11 19:44:00,37.9,33.5,30.33,SE,135,0.0,0.0,84,0.00,CLR,,0.00,WeatherDisplay:10.37,2013-01-12 00:44:00,
2013-01-11 19:46:00,37.9,33.5,30.33,SE,135,0.0,0.0,84,0.00,CLR,,0.00,WeatherDisplay:10.37,2013-01-12 00:46:00,
2013-01-11 19:47:00,37.9,33.5,30.33,SE,135,0.0,0.0,84,0.00,CLR,,0.00,WeatherDisplay:10.37,2013-01-12 00:47:00,
2013-01-11 19:49:00,37.9,33.5,30.33,SE,135,0.0,0.0,84,0.00,CLR,,0.00,WeatherDisplay:10.37,2013-01-12 00:49:00,
2013-01-11 19:51:00,37.9,33.5,30.33,SE,135,0.0,0.0,84,0.00,CLR,,0.00,WeatherDisplay:10.37,2013-01-12 00:51:00,
2013-01-11 19:53:00,37.9,33.5,30.33,SE,135,0.0,0.0,84,0.00,CLR,,0.00,WeatherDisplay:10.37,2013-01-12 00:53:00,
2013-01-11 19:54:00,37.9,33.5,30.33,SE,135,0.0,0.0,84,0.00,CLR,,0.00,WeatherDisplay:10.37,2013-01-12 00:54:00,
2013-01-11 19:56:00,37.9,33.5,30.33,SE,135,0.0,0.0,84,0.00,CLR,,0.00,WeatherDisplay:10.37,2013-01-12 00:56:00,
2013-01-11 19:58:00,37.9,33.5,30.33,SE,135,0.0,0.0,84,0.00,CLR,,0.00,WeatherDisplay:10.37,2013-01-12 00:58:00,
2013-01-11 19:59:00,37.9,33.5,30.33,SE,135,0.0,0.0,84,0.00,CLR,,0.00,WeatherDisplay:10.37,2013-01-12 00:59:00,
2013-01-11 20:01:00,38.5,34.1,30.31,SE,135,0.0,0.2,84,0.00,CLR,,0.00,WeatherDisplay:10.37,2013-01-12 01:01:00,
2013-01-11 20:02:00,38.5,34.1,30.31,SE,135,0.0,0.2,84,0.00,CLR,,0.00,WeatherDisplay:10.37,2013-01-12 01:02:00,
2013-01-11 20:03:00,38.5,34.1,30.31,SE,135,0.0,0.2,84,0.00,CLR,,0.00,WeatherDisplay:10.37,2013-01-12 01:03:00,
2013-01-11 20:04:00,38.5,34.1,30.31,SE,135,0.0,0.2,84,0.00,CLR,,0.00,WeatherDisplay:10.37,2013-01-12 01:04:00,
2013-01-11 20:06:00,38.5,34.1,30.31,SE,135,0.0,0.2,84,0.00,CLR,,0.00,WeatherDisplay:10.37,2013-01-12 01:06:00,
2013-01-11 20:07:00,38.5,34.1,30.31,SE,135,0.0,0.2,84,0.00,CLR,,0.00,WeatherDisplay:10.37,2013-01-12 01:07:00,
2013-01-11 20:08:00,38.5,34.1,30.31,SE,135,0.0,0.2,84,0.00,CLR,,0.00,WeatherDisplay:10.37,2013-01-12 01:08:00,
2013-01-11 20:10:00,38.5,34.1,30.31,SE,135,0.0,0.2,84,0.00,CLR,,0.00,WeatherDisplay:10.37,2013-01-12 01:10:00,
2013-01-11 20:12:00,38.5,34.1,30.31,SE,135,0.0,0.2,84,0.00,CLR,,0.00,WeatherDisplay:10.37,2013-01-12 01:12:00,
2013-01-11 20:13:00,38.5,34.1,30.31,SE,135,0.0,0.2,84,0.00,CLR,,0.00,WeatherDisplay:10.37,2013-01-12 01:13:00,
2013-01-11 20:15:00,38.5,34.1,30.31,SE,135,0.0,0.2,84,0.00,CLR,,0.00,WeatherDisplay:10.37,2013-01-12 01:15:00,
2013-01-11 20:17:00,38.5,34.1,30.31,SE,135,0.0,0.2,84,0.00,CLR,,0.00,WeatherDisplay:10.37,2013-01-12 01:17:00,
2013-01-11 20:18:00,38.5,34.1,30.31,SE,135,0.0,0.2,84,0.00,CLR,,0.00,WeatherDisplay:10.37,2013-01-12 01:18:00,
2013-01-11 20:20:00,38.5,34.1,30.31,SE,135,0.0,0.2,84,0.00,CLR,,0.00,WeatherDisplay:10.37,2013-01-12 01:20:00,
2013-01-11 20:22:00,38.5,34.1,30.31,SE,135,0.0,0.2,84,0.00,CLR,,0.00,WeatherDisplay:10.37,2013-01-12 01:22:00,
2013-01-11 20:23:00,38.5,34.1,30.31,SE,135,0.0,0.2,84,0.00,CLR,,0.00,WeatherDisplay:10.37,2013-01-12 01:23:00,
2013-01-11 20:25:00,38.5,34.1,30.31,SE,135,0.0,0.2,84,0.00,CLR,,0.00,WeatherDisplay:10.37,2013-01-12 01:25:00,
2013-01-11 20:27:00,38.5,34.1,30.31,SE,135,0.0,0.2,84,0.00,CLR,,0.00,WeatherDisplay:10.37,2013-01-12 01:27:00,
2013-01-11 20:28:00,38.5,34.1,30.31,SE,135,0.0,0.2,84,0.00,CLR,,0.00,WeatherDisplay:10.37,2013-01-12 01:28:00,
2013-01-11 20:30:00,38.5,34.1,30.31,SE,135,0.0,0.2,84,0.00,CLR,,0.00,WeatherDisplay:10.37,2013-01-12 01:30:00,
2013-01-11 20:32:00,38.5,34.1,30.33,NNW,338,0.0,0.0,84,0.00,CLR,,0.00,WeatherDisplay:10.37,2013-01-12 01:32:00,
2013-01-11 20:34:00,38.5,34.1,30.33,NNW,338,0.0,0.0,84,0.00,CLR,,0.00,WeatherDisplay:10.37,2013-01-12 01:34:00,
2013-01-11 20:35:00,38.5,34.1,30.33,NNW,338,0.0,0.0,84,0.00,CLR,,0.00,WeatherDisplay:10.37,2013-01-12 01:35:00,
2013-01-11 20:37:00,38.5,34.1,30.33,NNW,338,0.0,0.0,84,0.00,CLR,,0.00,WeatherDisplay:10.37,2013-01-12 01:37:00,
2013-01-11 20:39:00,38.5,34.1,30.33,NNW,338,0.0,0.0,84,0.00,CLR,,0.00,WeatherDisplay:10.37,2013-01-12 01:39:00,
2013-01-11 20:40:00,38.5,34.1,30.33,NNW,338,0.0,0.0,84,0.00,CLR,,0.00,WeatherDisplay:10.37,2013-01-12 01:40:00,
2013-01-11 20:43:00,38.5,34.1,30.33,NNW,338,0.0,0.0,84,0.00,CLR,,0.00,WeatherDisplay:10.37,2013-01-12 01:43:00,
2013-01-11 20:44:00,38.5,34.1,30.33,NNW,338,0.0,0.0,84,0.00,CLR,,0.00,WeatherDisplay:10.37,2013-01-12 01:44:00,
2013-01-11 20:45:00,38.5,34.1,30.33,NNW,338,0.0,0.0,84,0.00,CLR,,0.00,WeatherDisplay:10.37,2013-01-12 01:45:00,
2013-01-11 20:48:00,38.5,34.1,30.33,NNW,338,0.0,0.0,84,0.00,CLR,,0.00,WeatherDisplay:10.37,2013-01-12 01:48:00,
2013-01-11 20:49:00,38.5,34.1,30.33,NNW,338,0.0,0.0,84,0.00,CLR,,0.00,WeatherDisplay:10.37,2013-01-12 01:49:00,
2013-01-11 20:50:00,38.5,34.1,30.33,NNW,338,0.0,0.0,84,0.00,CLR,,0.00,WeatherDisplay:10.37,2013-01-12 01:50:00,
2013-01-11 20:53:00,38.5,34.1,30.33,NNW,338,0.0,0.0,84,0.00,CLR,,0.00,WeatherDisplay:10.37,2013-01-12 01:53:00,
2013-01-11 20:54:00,38.5,34.1,30.33,NNW,338,0.0,0.0,84,0.00,CLR,,0.00,WeatherDisplay:10.37,2013-01-12 01:54:00,
2013-01-11 20:56:00,38.5,34.1,30.33,NNW,338,0.0,0.0,84,0.00,CLR,,0.00,WeatherDisplay:10.37,2013-01-12 01:56:00,
2013-01-11 20:58:00,38.5,34.1,30.33,NNW,338,0.0,0.0,84,0.00,CLR,,0.00,WeatherDisplay:10.37,2013-01-12 01:58:00,
2013-01-11 20:59:00,38.5,34.1,30.33,NNW,338,0.0,0.0,84,0.00,CLR,,0.00,WeatherDisplay:10.37,2013-01-12 01:59:00,
2013-01-11 21:01:00,38.8,34.7,30.30,North,0,0.0,0.0,85,0.00,CLR,,0.00,WeatherDisplay:10.37,2013-01-12 02:01:00,
2013-01-11 21:03:00,38.8,34.7,30.30,North,0,0.0,0.0,85,0.00,CLR,,0.00,WeatherDisplay:10.37,2013-01-12 02:03:00,
2013-01-11 21:04:00,38.8,34.7,30.30,North,0,0.0,0.0,85,0.00,CLR,,0.00,WeatherDisplay:10.37,2013-01-12 02:04:00,
2013-01-11 21:06:00,38.8,34.7,30.30,North,0,0.0,0.0,85,0.00,CLR,,0.00,WeatherDisplay:10.37,2013-01-12 02:06:00,
2013-01-11 21:08:00,38.8,34.7,30.30,North,0,0.0,0.0,85,0.00,CLR,,0.00,WeatherDisplay:10.37,2013-01-12 02:08:00,
2013-01-11 21:09:00,38.8,34.7,30.30,North,0,0.0,0.0,85,0.00,CLR,,0.00,WeatherDisplay:10.37,2013-01-12 02:09:00,
2013-01-11 21:12:00,38.8,34.7,30.30,North,0,0.0,0.0,85,0.00,CLR,,0.00,WeatherDisplay:10.37,2013-01-12 02:12:00,
2013-01-11 21:13:00,38.8,34.7,30.30,North,0,0.0,0.0,85,0.00,CLR,,0.00,WeatherDisplay:10.37,2013-01-12 02:13:00,
2013-01-11 21:14:00,38.8,34.7,30.30,North,0,0.0,0.0,85,0.00,CLR,,0.00,WeatherDisplay:10.37,2013-01-12 02:14:00,
2013-01-11 21:17:00,38.8,34.7,30.30,North,0,0.0,0.0,85,0.00,CLR,,0.00,WeatherDisplay:10.37,2013-01-12 02:17:00,
2013-01-11 21:18:00,38.8,34.7,30.30,North,0,0.0,0.0,85,0.00,CLR,,0.00,WeatherDisplay:10.37,2013-01-12 02:18:00,
2013-01-11 21:19:00,38.8,34.7,30.30,North,0,0.0,0.0,85,0.00,CLR,,0.00,WeatherDisplay:10.37,2013-01-12 02:19:00,
2013-01-11 21:22:00,38.8,34.7,30.30,North,0,0.0,0.0,85,0.00,CLR,,0.00,WeatherDisplay:10.37,2013-01-12 02:22:00,
2013-01-11 21:23:00,38.8,34.7,30.30,North,0,0.0,0.0,85,0.00,CLR,,0.00,WeatherDisplay:10.37,2013-01-12 02:23:00,
2013-01-11 21:24:00,38.8,34.7,30.30,North,0,0.0,0.0,85,0.00,CLR,,0.00,WeatherDisplay:10.37,2013-01-12 02:24:00,
2013-01-11 21:27:00,38.8,34.7,30.30,North,0,0.0,0.0,85,0.00,CLR,,0.00,WeatherDisplay:10.37,2013-01-12 02:27:00,
2013-01-11 21:28:00,38.8,34.7,30.30,North,0,0.0,0.0,85,0.00,CLR,,0.00,WeatherDisplay:10.37,2013-01-12 02:28:00,
2013-01-11 21:29:00,38.8,34.7,30.30,North,0,0.0,0.0,85,0.00,CLR,,0.00,WeatherDisplay:10.37,2013-01-12 02:29:00,
2013-01-11 21:32:00,38.8,34.7,30.29,ENE,68,0.0,0.0,85,0.00,CLR,,0.00,WeatherDisplay:10.37,2013-01-12 02:32:00,
2013-01-11 21:34:00,38.8,34.7,30.29,ENE,68,0.0,0.0,85,0.00,CLR,,0.00,WeatherDisplay:10.37,2013-01-12 02:34:00,
2013-01-11 21:35:00,38.8,34.7,30.29,ENE,68,0.0,0.0,85,0.00,CLR,,0.00,WeatherDisplay:10.37,2013-01-12 02:35:00,
2013-01-11 21:37:00,38.8,34.7,30.29,ENE,68,0.0,0.0,85,0.00,CLR,,0.00,WeatherDisplay:10.37,2013-01-12 02:37:00,
2013-01-11 21:39:00,38.8,34.7,30.29,ENE,68,0.0,0.0,85,0.00,CLR,,0.00,WeatherDisplay:10.37,2013-01-12 02:39:00,
2013-01-11 21:40:00,38.8,34.7,30.29,ENE,68,0.0,0.0,85,0.00,CLR,,0.00,WeatherDisplay:10.37,2013-01-12 02:40:00,
2013-01-11 21:42:00,38.8,34.7,30.29,ENE,68,0.0,0.0,85,0.00,CLR,,0.00,WeatherDisplay:10.37,2013-01-12 02:42:00,
2013-01-11 21:44:00,38.8,34.7,30.29,ENE,68,0.0,0.0,85,0.00,CLR,,0.00,WeatherDisplay:10.37,2013-01-12 02:44:00,
2013-01-11 21:45:00,38.8,34.7,30.29,ENE,68,0.0,0.0,85,0.00,CLR,,0.00,WeatherDisplay:10.37,2013-01-12 02:45:00,
2013-01-11 21:47:00,38.8,34.7,30.29,ENE,68,0.0,0.0,85,0.00,CLR,,0.00,WeatherDisplay:10.37,2013-01-12 02:47:00,
2013-01-11 21:49:00,38.8,34.7,30.29,ENE,68,0.0,0.0,85,0.00,CLR,,0.00,WeatherDisplay:10.37,2013-01-12 02:49:00,
2013-01-11 21:50:00,38.8,34.7,30.29,ENE,68,0.0,0.0,85,0.00,CLR,,0.00,WeatherDisplay:10.37,2013-01-12 02:50:00,
2013-01-11 21:52:00,38.8,34.7,30.29,ENE,68,0.0,0.0,85,0.00,CLR,,0.00,WeatherDisplay:10.37,2013-01-12 02:52:00,
2013-01-11 21:54:00,38.8,34.7,30.29,ENE,68,0.0,0.0,85,0.00,CLR,,0.00,WeatherDisplay:10.37,2013-01-12 02:54:00,
2013-01-11 21:55:00,38.8,34.7,30.29,ENE,68,0.0,0.0,85,0.00,CLR,,0.00,WeatherDisplay:10.37,2013-01-12 02:55:00,
2013-01-11 21:58:00,38.8,34.7,30.29,ENE,68,0.0,0.0,85,0.00,CLR,,0.00,WeatherDisplay:10.37,2013-01-12 02:58:00,
2013-01-11 21:59:00,38.8,34.7,30.29,ENE,68,0.0,0.0,85,0.00,CLR,,0.00,WeatherDisplay:10.37,2013-01-12 02:59:00,
2013-01-11 22:00:00,38.8,34.7,30.29,ENE,68,0.0,0.0,85,0.00,CLR,,0.00,WeatherDisplay:10.37,2013-01-12 03:00:00,
2013-01-11 22:01:00,39.0,34.9,30.29,ENE,68,0.0,0.0,85,0.00,CLR,,0.00,WeatherDisplay:10.37,2013-01-12 03:01:00,
2013-01-11 22:03:00,39.0,34.9,30.29,ENE,68,0.0,0.0,85,0.00,CLR,,0.00,WeatherDisplay:10.37,2013-01-12 03:03:00,
2013-01-11 22:04:00,39.0,34.9,30.29,ENE,68,0.0,0.0,85,0.00,CLR,,0.00,WeatherDisplay:10.37,2013-01-12 03:04:00,
2013-01-11 22:05:00,39.0,34.9,30.29,ENE,68,0.0,0.0,85,0.00,CLR,,0.00,WeatherDisplay:10.37,2013-01-12 03:05:00,
2013-01-11 22:06:00,39.0,34.9,30.29,ENE,68,0.0,0.0,85,0.00,CLR,,0.00,WeatherDisplay:10.37,2013-01-12 03:06:00,
2013-01-11 22:08:00,39.0,34.9,30.29,ENE,68,0.0,0.0,85,0.00,CLR,,0.00,WeatherDisplay:10.37,2013-01-12 03:08:00,
2013-01-11 22:10:00,39.0,34.9,30.29,ENE,68,0.0,0.0,85,0.00,CLR,,0.00,WeatherDisplay:10.37,2013-01-12 03:10:00,
2013-01-11 22:11:00,39.0,34.9,30.29,ENE,68,0.0,0.0,85,0.00,CLR,,0.00,WeatherDisplay:10.37,2013-01-12 03:11:00,
2013-01-11 22:14:00,39.0,34.9,30.29,ENE,68,0.0,0.0,85,0.00,CLR,,0.00,WeatherDisplay:10.37,2013-01-12 03:14:00,
2013-01-11 22:15:00,39.0,34.9,30.29,ENE,68,0.0,0.0,85,0.00,CLR,,0.00,WeatherDisplay:10.37,2013-01-12 03:15:00,
2013-01-11 22:16:00,39.0,34.9,30.29,ENE,68,0.0,0.0,85,0.00,CLR,,0.00,WeatherDisplay:10.37,2013-01-12 03:16:00,
2013-01-11 22:19:00,39.0,34.9,30.29,ENE,68,0.0,0.0,85,0.00,CLR,,0.00,WeatherDisplay:10.37,2013-01-12 03:19:00,
2013-01-11 22:20:00,39.0,34.9,30.29,ENE,68,0.0,0.0,85,0.00,CLR,,0.00,WeatherDisplay:10.37,2013-01-12 03:20:00,
2013-01-11 22:21:00,39.0,34.9,30.29,ENE,68,0.0,0.0,85,0.00,CLR,,0.00,WeatherDisplay:10.37,2013-01-12 03:21:00,
2013-01-11 22:24:00,39.0,34.9,30.29,ENE,68,0.0,0.0,85,0.00,CLR,,0.00,WeatherDisplay:10.37,2013-01-12 03:24:00,
2013-01-11 22:25:00,39.0,34.9,30.29,ENE,68,0.0,0.0,85,0.00,CLR,,0.00,WeatherDisplay:10.37,2013-01-12 03:25:00,
2013-01-11 22:26:00,39.0,34.9,30.29,ENE,68,0.0,0.0,85,0.00,CLR,,0.00,WeatherDisplay:10.37,2013-01-12 03:26:00,
2013-01-11 22:29:00,39.0,34.9,30.29,ENE,68,0.0,0.0,85,0.00,CLR,,0.00,WeatherDisplay:10.37,2013-01-12 03:29:00,
2013-01-11 22:30:00,39.0,34.9,30.29,ENE,68,0.0,0.0,85,0.00,CLR,,0.00,WeatherDisplay:10.37,2013-01-12 03:30:00,
2013-01-11 22:31:00,39.4,35.2,30.28,North,0,0.0,0.0,85,0.00,CLR,,0.00,WeatherDisplay:10.37,2013-01-12 03:31:00,
2013-01-11 22:35:00,39.4,35.2,30.28,North,0,0.0,0.0,85,0.00,CLR,,0.00,WeatherDisplay:10.37,2013-01-12 03:35:00,
2013-01-11 22:36:00,39.4,35.2,30.28,North,0,0.0,0.0,85,0.00,CLR,,0.00,WeatherDisplay:10.37,2013-01-12 03:36:00,
2013-01-11 22:37:00,39.4,35.2,30.28,North,0,0.0,0.0,85,0.00,CLR,,0.00,WeatherDisplay:10.37,2013-01-12 03:37:00,
2013-01-11 22:40:00,39.4,35.2,30.28,North,0,0.0,0.0,85,0.00,CLR,,0.00,WeatherDisplay:10.37,2013-01-12 03:40:00,
2013-01-11 22:41:00,39.4,35.2,30.28,North,0,0.0,0.0,85,0.00,CLR,,0.00,WeatherDisplay:10.37,2013-01-12 03:41:00,
2013-01-11 22:42:00,39.4,35.2,30.28,North,0,0.0,0.0,85,0.00,CLR,,0.00,WeatherDisplay:10.37,2013-01-12 03:42:00,
2013-01-11 22:46:00,39.4,35.2,30.28,North,0,0.0,0.0,85,0.00,CLR,,0.00,WeatherDisplay:10.37,2013-01-12 03:46:00,
2013-01-11 22:47:00,39.4,35.2,30.28,North,0,0.0,0.0,85,0.00,CLR,,0.00,WeatherDisplay:10.37,2013-01-12 03:47:00,
2013-01-11 22:51:00,39.4,35.2,30.28,North,0,0.0,0.0,85,0.00,CLR,,0.00,WeatherDisplay:10.37,2013-01-12 03:51:00,
2013-01-11 22:52:00,39.4,35.2,30.28,North,0,0.0,0.0,85,0.00,CLR,,0.00,WeatherDisplay:10.37,2013-01-12 03:52:00,
2013-01-11 22:56:00,39.4,35.2,30.28,North,0,0.0,0.0,85,0.00,CLR,,0.00,WeatherDisplay:10.37,2013-01-12 03:56:00,
2013-01-11 22:57:00,39.4,35.2,30.28,North,0,0.0,0.0,85,0.00,CLR,,0.00,WeatherDisplay:10.37,2013-01-12 03:57:00,
2013-01-11 23:01:00,39.4,35.2,30.27,NNW,338,0.0,0.0,85,0.00,CLR,,0.00,WeatherDisplay:10.37,2013-01-12 04:01:00,
2013-01-11 23:02:00,39.4,35.2,30.27,NNW,338,0.0,0.0,85,0.00,CLR,,0.00,WeatherDisplay:10.37,2013-01-12 04:02:00,
2013-01-11 23:06:00,39.4,35.2,30.27,NNW,338,0.0,0.0,85,0.00,CLR,,0.00,WeatherDisplay:10.37,2013-01-12 04:06:00,
2013-01-11 23:07:00,39.4,35.2,30.27,NNW,338,0.0,0.0,85,0.00,CLR,,0.00,WeatherDisplay:10.37,2013-01-12 04:07:00,
2013-01-11 23:11:00,39.4,35.2,30.27,NNW,338,0.0,0.0,85,0.00,CLR,,0.00,WeatherDisplay:10.37,2013-01-12 04:11:00,
2013-01-11 23:12:00,39.4,35.2,30.27,NNW,338,0.0,0.0,85,0.00,CLR,,0.00,WeatherDisplay:10.37,2013-01-12 04:12:00,
2013-01-11 23:16:00,39.4,35.2,30.27,NNW,338,0.0,0.0,85,0.00,CLR,,0.00,WeatherDisplay:10.37,2013-01-12 04:16:00,
2013-01-11 23:17:00,39.4,35.2,30.27,NNW,338,0.0,0.0,85,0.00,CLR,,0.00,WeatherDisplay:10.37,2013-01-12 04:17:00,
2013-01-11 23:18:00,39.4,35.2,30.27,NNW,338,0.0,0.0,85,0.00,CLR,,0.00,WeatherDisplay:10.37,2013-01-12 04:18:00,
2013-01-11 23:21:00,39.4,35.2,30.27,NNW,338,0.0,0.0,85,0.00,CLR,,0.00,WeatherDisplay:10.37,2013-01-12 04:21:00,
2013-01-11 23:22:00,39.4,35.2,30.27,NNW,338,0.0,0.0,85,0.00,CLR,,0.00,WeatherDisplay:10.37,2013-01-12 04:22:00,
2013-01-11 23:23:00,39.4,35.2,30.27,NNW,338,0.0,0.0,85,0.00,CLR,,0.00,WeatherDisplay:10.37,2013-01-12 04:23:00,
2013-01-11 23:27:00,39.4,35.2,30.27,NNW,338,0.0,0.0,85,0.00,CLR,,0.00,WeatherDisplay:10.37,2013-01-12 04:27:00,
2013-01-11 23:28:00,39.4,35.2,30.27,NNW,338,0.0,0.0,85,0.00,CLR,,0.00,WeatherDisplay:10.37,2013-01-12 04:28:00,
2013-01-11 23:32:00,39.4,35.2,30.26,ENE,68,0.0,0.0,85,0.00,CLR,,0.00,WeatherDisplay:10.37,2013-01-12 04:32:00,
2013-01-11 23:33:00,39.4,35.2,30.26,ENE,68,0.0,0.0,85,0.00,CLR,,0.00,WeatherDisplay:10.37,2013-01-12 04:33:00,
2013-01-11 23:37:00,39.4,35.2,30.26,ENE,68,0.0,0.0,85,0.00,CLR,,0.00,WeatherDisplay:10.37,2013-01-12 04:37:00,
2013-01-11 23:39:00,39.4,35.2,30.26,ENE,68,0.0,0.0,85,0.00,CLR,,0.00,WeatherDisplay:10.37,2013-01-12 04:39:00,
2013-01-11 23:40:00,39.4,35.2,30.26,ENE,68,0.0,0.0,85,0.00,CLR,,0.00,WeatherDisplay:10.37,2013-01-12 04:40:00,
2013-01-11 23:42:00,39.4,35.2,30.26,ENE,68,0.0,0.0,85,0.00,CLR,,0.00,WeatherDisplay:10.37,2013-01-12 04:42:00,
2013-01-11 23:43:00,39.4,35.2,30.26,ENE,68,0.0,0.0,85,0.00,CLR,,0.00,WeatherDisplay:10.37,2013-01-12 04:43:00,
2013-01-11 23:44:00,39.4,35.2,30.26,ENE,68,0.0,0.0,85,0.00,CLR,,0.00,WeatherDisplay:10.37,2013-01-12 04:44:00,
2013-01-11 23:45:00,39.4,35.2,30.26,ENE,68,0.0,0.0,85,0.00,CLR,,0.00,WeatherDisplay:10.37,2013-01-12 04:45:00,
2013-01-11 23:47:00,39.4,35.2,30.26,ENE,68,0.0,0.0,85,0.00,CLR,,0.00,WeatherDisplay:10.37,2013-01-12 04:47:00,
2013-01-11 23:48:00,39.4,35.2,30.26,ENE,68,0.0,0.0,85,0.00,CLR,,0.00,WeatherDisplay:10.37,2013-01-12 04:48:00,
2013-01-11 23:49:00,39.4,35.2,30.26,ENE,68,0.0,0.0,85,0.00,CLR,,0.00,WeatherDisplay:10.37,2013-01-12 04:49:00,
2013-01-11 23:50:00,39.4,35.2,30.26,ENE,68,0.0,0.0,85,0.00,CLR,,0.00,WeatherDisplay:10.37,2013-01-12 04:50:00,
2013-01-11 23:53:00,39.4,35.2,30.26,ENE,68,0.0,0.0,85,0.00,CLR,,0.00,WeatherDisplay:10.37,2013-01-12 04:53:00,
2013-01-11 23:55:00,39.4,35.2,30.26,ENE,68,0.0,0.0,85,0.00,CLR,,0.00,WeatherDisplay:10.37,2013-01-12 04:55:00,
2013-01-11 23:59:00,39.4,35.2,30.26,ENE,68,0.0,0.0,85,0.00,CLR,,0.00,WeatherDisplay:10.37,2013-01-12 04:59:00,